Wetterdaten: Donnerstag, 27.06.2013
Datum Zeit Temp. Aussen +5cm Feuchte Auss Luftdruck Regen Sonnenschein Regendauer UV Solar Windben
27.06.2013 00:00 12,9 C 11,2 C 82 % 1025,3 hPa 0,0 l/m 0 min 0 min 0,0 UV-I 0 W/m 0,0 km/h (0 Bft)
27.06.2013 00:02 12,9 C 11,2 C 82 % 1025,2 hPa 0,0 l/m 0 min 0 min 0,0 UV-I 0 W/m 0,0 km/h (0 Bft)
27.06.2013 00:05 12,9 C 11,2 C 82 % 1025,2 hPa 0,0 l/m 0 min 0 min 0,0 UV-I 0 W/m 0,0 km/h (0 Bft)
27.06.2013 00:06 12,8 C 11,2 C 82 % 1025,3 hPa 0,0 l/m 0 min 0 min 0,0 UV-I 0 W/m 0,0 km/h (0 Bft)
27.06.2013 00:08 12,8 C 11,2 C 82 % 1025,3 hPa 0,0 l/m 0 min 0 min 0,0 UV-I 0 W/m 0,0 km/h (0 Bft)
27.06.2013 00:10 12,8 C 11,8 C 82 % 1025,3 hPa 0,0 l/m 0 min 0 min 0,0 UV-I 0 W/m 0,0 km/h (0 Bft)
27.06.2013 00:12 12,8 C 11,8 C 82 % 1025,2 hPa 0,0 l/m 0 min 0 min 0,0 UV-I 0 W/m 0,0 km/h (0 Bft)
27.06.2013 00:14 12,8 C 11,8 C 82 % 1025,3 hPa 0,0 l/m 0 min 0 min 0,0 UV-I 0 W/m 0,0 km/h (0 Bft)
27.06.2013 00:16 12,8 C 11,8 C 82 % 1025,2 hPa 0,0 l/m 0 min 0 min 0,0 UV-I 0 W/m 0,0 km/h (0 Bft)
27.06.2013 00:18 12,8 C 11,2 C 82 % 1025,2 hPa 0,0 l/m 0 min 0 min 0,0 UV-I 0 W/m 0,0 km/h (0 Bft)
27.06.2013 00:20 12,8 C 11,2 C 82 % 1025,3 hPa 0,0 l/m 0 min 0 min 0,0 UV-I 0 W/m 0,0 km/h (0 Bft)
27.06.2013 00:22 12,8 C 11,2 C 83 % 1025,2 hPa 0,0 l/m 0 min 0 min 0,0 UV-I 0 W/m 0,0 km/h (0 Bft)
27.06.2013 00:24 12,8 C 11,2 C 83 % 1025,2 hPa 0,0 l/m 0 min 0 min 0,0 UV-I 0 W/m 0,0 km/h (0 Bft)
27.06.2013 00:26 12,8 C 11,2 C 82 % 1025,2 hPa 0,0 l/m 0 min 0 min 0,0 UV-I 0 W/m 0,0 km/h (0 Bft)
27.06.2013 00:28 12,7 C 11,2 C 82 % 1025,2 hPa 0,0 l/m 0 min 0 min 0,0 UV-I 0 W/m 0,0 km/h (0 Bft)
27.06.2013 00:30 12,7 C 11,2 C 83 % 1025,2 hPa 0,0 l/m 0 min 2 min 0,0 UV-I 0 W/m 0,0 km/h (0 Bft)
27.06.2013 00:32 12,7 C 11,2 C 83 % 1025,3 hPa 0,0 l/m 0 min 0 min 0,0 UV-I 0 W/m 0,0 km/h (0 Bft)
27.06.2013 00:34 12,7 C 11,8 C 83 % 1025,1 hPa 0,0 l/m 0 min 0 min 0,0 UV-I 0 W/m 0,0 km/h (0 Bft)
27.06.2013 00:36 12,7 C 11,8 C 83 % 1025,2 hPa 0,0 l/m 0 min 0 min 0,0 UV-I 0 W/m 0,0 km/h (0 Bft)
27.06.2013 00:38 12,7 C 11,8 C 83 % 1025,2 hPa 0,0 l/m 0 min 0 min 0,0 UV-I 0 W/m 0,0 km/h (0 Bft)
27.06.2013 00:40 12,7 C 11,8 C 83 % 1025,1 hPa 0,0 l/m 0 min 0 min 0,0 UV-I 0 W/m 0,0 km/h (0 Bft)
27.06.2013 00:42 12,7 C 11,8 C 83 % 1025,1 hPa 0,0 l/m 0 min 0 min 0,0 UV-I 0 W/m 0,0 km/h (0 Bft)
27.06.2013 00:44 12,7 C 11,8 C 84 % 1025,2 hPa 0,0 l/m 0 min 0 min 0,0 UV-I 0 W/m 0,0 km/h (0 Bft)
27.06.2013 00:46 12,7 C 11,8 C 84 % 1025,2 hPa 0,0 l/m 0 min 2 min 0,0 UV-I 0 W/m 0,0 km/h (0 Bft)
27.06.2013 00:48 12,7 C 11,8 C 84 % 1025,2 hPa 0,0 l/m 0 min 2 min 0,0 UV-I 0 W/m 0,0 km/h (0 Bft)
27.06.2013 00:50 12,7 C 11,2 C 84 % 1025,2 hPa 0,0 l/m 0 min 2 min 0,0 UV-I 0 W/m 0,0 km/h (0 Bft)
27.06.2013 00:52 12,7 C 11,2 C 84 % 1025,2 hPa 0,0 l/m 0 min 2 min 0,0 UV-I 0 W/m 0,0 km/h (0 Bft)
27.06.2013 00:54 12,7 C 11,2 C 84 % 1025,1 hPa 0,2 l/m 0 min 2 min 0,0 UV-I 0 W/m 0,0 km/h (0 Bft)
27.06.2013 00:56 12,7 C 10,7 C 85 % 1025,3 hPa 0,0 l/m 0 min 2 min 0,0 UV-I 0 W/m 0,0 km/h (0 Bft)
27.06.2013 00:58 12,7 C 10,7 C 85 % 1025,3 hPa 0,2 l/m 0 min 2 min 0,0 UV-I 0 W/m 0,0 km/h (0 Bft)
27.06.2013 01:00 12,7 C 10,7 C 86 % 1025,3 hPa 0,0 l/m 0 min 2 min 0,0 UV-I 0 W/m 0,0 km/h (0 Bft)
27.06.2013 01:02 12,7 C 10,7 C 86 % 1025,3 hPa 0,2 l/m 0 min 2 min 0,0 UV-I 0 W/m 0,0 km/h (0 Bft)
27.06.2013 01:06 12,7 C 10,7 C 87 % 1025,3 hPa 0,0 l/m 0 min 2 min 0,0 UV-I 0 W/m 0,0 km/h (0 Bft)
27.06.2013 01:08 12,7 C 10,7 C 87 % 1025,3 hPa 0,4 l/m 0 min 2 min 0,0 UV-I 0 W/m 0,0 km/h (0 Bft)
27.06.2013 01:10 12,7 C 10,7 C 88 % 1025,2 hPa 0,2 l/m 0 min 2 min 0,0 UV-I 0 W/m 0,0 km/h (0 Bft)
27.06.2013 01:12 12,7 C 10,7 C 88 % 1025,2 hPa 0,0 l/m 0 min 2 min 0,0 UV-I 0 W/m 10,3 km/h (2 Bft)
27.06.2013 01:14 12,7 C 10,7 C 88 % 1025,3 hPa 0,0 l/m 0 min 2 min 0,0 UV-I 0 W/m 5,1 km/h (1 Bft)
27.06.2013 01:16 12,7 C 10,7 C 89 % 1025,2 hPa 0,2 l/m 0 min 2 min 0,0 UV-I 0 W/m 10,3 km/h (2 Bft)
27.06.2013 01:18 12,7 C 10,7 C 89 % 1025,2 hPa 0,0 l/m 0 min 2 min 0,0 UV-I 0 W/m 2,6 km/h (1 Bft)
27.06.2013 01:20 12,7 C 10,7 C 89 % 1025,1 hPa 0,0 l/m 0 min 2 min 0,0 UV-I 0 W/m 12,9 km/h (3 Bft)
27.06.2013 01:22 12,6 C 10,7 C 90 % 1025,1 hPa 0,2 l/m 0 min 2 min 0,0 UV-I 0 W/m 20,6 km/h (4 Bft)
27.06.2013 01:24 12,6 C 10,7 C 89 % 1025,1 hPa 0,0 l/m 0 min 2 min 0,0 UV-I 0 W/m 7,7 km/h (2 Bft)
27.06.2013 01:26 12,5 C 10,7 C 90 % 1025,0 hPa 0,0 l/m 0 min 2 min 0,0 UV-I 0 W/m 7,7 km/h (2 Bft)
27.06.2013 01:28 12,4 C 10,7 C 90 % 1025,0 hPa 0,0 l/m 0 min 2 min 0,0 UV-I 0 W/m 7,7 km/h (2 Bft)
27.06.2013 01:30 12,4 C 10,7 C 90 % 1025,0 hPa 0,0 l/m 0 min 2 min 0,0 UV-I 0 W/m 0,0 km/h (0 Bft)
27.06.2013 01:32 12,4 C 10,7 C 90 % 1025,1 hPa 0,2 l/m 0 min 2 min 0,0 UV-I 0 W/m 0,0 km/h (0 Bft)
27.06.2013 01:34 12,3 C 10,7 C 91 % 1025,0 hPa 0,0 l/m 0 min 2 min 0,0 UV-I 0 W/m 0,0 km/h (0 Bft)
27.06.2013 01:36 12,3 C 10,7 C 91 % 1025,0 hPa 0,0 l/m 0 min 2 min 0,0 UV-I 0 W/m 7,7 km/h (2 Bft)
27.06.2013 01:38 12,3 C 10,7 C 91 % 1025,1 hPa 0,0 l/m 0 min 2 min 0,0 UV-I 0 W/m 2,6 km/h (1 Bft)
27.06.2013 01:40 12,2 C 10,7 C 91 % 1025,1 hPa 0,0 l/m 0 min 2 min 0,0 UV-I 0 W/m 7,7 km/h (2 Bft)
27.06.2013 01:42 12,2 C 10,7 C 91 % 1025,0 hPa 0,2 l/m 0 min 2 min 0,0 UV-I 0 W/m 0,0 km/h (0 Bft)
27.06.2013 01:44 12,2 C 10,7 C 91 % 1025,0 hPa 0,0 l/m 0 min 2 min 0,0 UV-I 0 W/m 0,0 km/h (0 Bft)
27.06.2013 01:46 12,2 C 10,7 C 91 % 1025,0 hPa 0,0 l/m 0 min 2 min 0,0 UV-I 0 W/m 0,0 km/h (0 Bft)
27.06.2013 01:48 12,2 C 10,7 C 92 % 1025,0 hPa 0,2 l/m 0 min 2 min 0,0 UV-I 0 W/m 0,0 km/h (0 Bft)
27.06.2013 01:50 12,1 C 10,7 C 92 % 1025,0 hPa 0,0 l/m 0 min 2 min 0,0 UV-I 0 W/m 0,0 km/h (0 Bft)
27.06.2013 01:52 12,1 C 10,7 C 92 % 1025,0 hPa 0,0 l/m 0 min 2 min 0,0 UV-I 0 W/m 2,6 km/h (1 Bft)
27.06.2013 01:54 12,1 C 10,7 C 92 % 1025,0 hPa 0,0 l/m 0 min 2 min 0,0 UV-I 0 W/m 0,0 km/h (0 Bft)
27.06.2013 01:56 12,1 C 10,7 C 92 % 1024,9 hPa 0,2 l/m 0 min 2 min 0,0 UV-I 0 W/m 0,0 km/h (0 Bft)
27.06.2013 01:58 12,0 C 10,7 C 92 % 1024,9 hPa 0,0 l/m 0 min 2 min 0,0 UV-I 0 W/m 5,1 km/h (1 Bft)
27.06.2013 02:00 12,0 C 10,7 C 92 % 1024,8 hPa 0,0 l/m 0 min 2 min 0,0 UV-I 0 W/m 7,7 km/h (2 Bft)
27.06.2013 02:02 11,9 C 10,1 C 92 % 1024,7 hPa 0,2 l/m 0 min 2 min 0,0 UV-I 0 W/m 0,0 km/h (0 Bft)
27.06.2013 02:06 11,9 C 10,1 C 92 % 1024,8 hPa 0,0 l/m 0 min 2 min 0,0 UV-I 0 W/m 10,3 km/h (2 Bft)
27.06.2013 02:08 11,9 C 10,1 C 92 % 1024,7 hPa 0,0 l/m 0 min 2 min 0,0 UV-I 0 W/m 2,6 km/h (1 Bft)
27.06.2013 02:10 11,8 C 10,1 C 92 % 1024,7 hPa 0,2 l/m 0 min 2 min 0,0 UV-I 0 W/m 2,6 km/h (1 Bft)
27.06.2013 02:12 11,8 C 10,1 C 92 % 1024,6 hPa 0,0 l/m 0 min 2 min 0,0 UV-I 0 W/m 0,0 km/h (0 Bft)
27.06.2013 02:14 11,8 C 10,1 C 93 % 1024,6 hPa 0,0 l/m 0 min 2 min 0,0 UV-I 0 W/m 0,0 km/h (0 Bft)
27.06.2013 02:16 11,8 C 10,1 C 93 % 1024,6 hPa 0,2 l/m 0 min 2 min 0,0 UV-I 0 W/m 0,0 km/h (0 Bft)
27.06.2013 02:18 11,8 C 10,1 C 93 % 1024,6 hPa 0,0 l/m 0 min 2 min 0,0 UV-I 0 W/m 7,7 km/h (2 Bft)
27.06.2013 02:20 11,7 C 10,1 C 93 % 1024,6 hPa 0,2 l/m 0 min 2 min 0,0 UV-I 0 W/m 12,9 km/h (3 Bft)
27.06.2013 02:22 11,7 C 10,1 C 93 % 1024,6 hPa 0,0 l/m 0 min 2 min 0,0 UV-I 0 W/m 0,0 km/h (0 Bft)
27.06.2013 02:24 11,7 C 10,1 C 93 % 1024,6 hPa 0,2 l/m 0 min 2 min 0,0 UV-I 0 W/m 0,0 km/h (0 Bft)
27.06.2013 02:26 11,7 C 10,1 C 93 % 1024,6 hPa 0,0 l/m 0 min 2 min 0,0 UV-I 0 W/m 5,1 km/h (1 Bft)
27.06.2013 02:28 11,6 C 10,1 C 93 % 1024,6 hPa 0,0 l/m 0 min 2 min 0,0 UV-I 0 W/m 2,6 km/h (1 Bft)
27.06.2013 02:30 11,6 C 10,1 C 93 % 1024,6 hPa 0,0 l/m 0 min 2 min 0,0 UV-I 0 W/m 0,0 km/h (0 Bft)
27.06.2013 02:32 11,6 C 10,1 C 93 % 1024,5 hPa 0,0 l/m 0 min 2 min 0,0 UV-I 0 W/m 0,0 km/h (0 Bft)
27.06.2013 02:34 11,5 C 10,1 C 93 % 1024,5 hPa 0,2 l/m 0 min 2 min 0,0 UV-I 0 W/m 0,0 km/h (0 Bft)
27.06.2013 02:36 11,5 C 10,1 C 93 % 1024,4 hPa 0,0 l/m 0 min 2 min 0,0 UV-I 0 W/m 0,0 km/h (0 Bft)
27.06.2013 02:38 11,5 C 10,1 C 93 % 1024,4 hPa 0,2 l/m 0 min 2 min 0,0 UV-I 0 W/m 0,0 km/h (0 Bft)
27.06.2013 02:40 11,4 C 10,1 C 93 % 1024,3 hPa 0,0 l/m 0 min 2 min 0,0 UV-I 0 W/m 0,0 km/h (0 Bft)
27.06.2013 02:42 11,4 C 10,1 C 93 % 1024,2 hPa 0,2 l/m 0 min 2 min 0,0 UV-I 0 W/m 0,0 km/h (0 Bft)
27.06.2013 02:44 11,4 C 10,1 C 93 % 1024,2 hPa 0,0 l/m 0 min 2 min 0,0 UV-I 0 W/m 0,0 km/h (0 Bft)
27.06.2013 02:46 11,4 C 10,1 C 93 % 1024,3 hPa 0,2 l/m 0 min 2 min 0,0 UV-I 0 W/m 0,0 km/h (0 Bft)
27.06.2013 02:48 11,4 C 10,1 C 93 % 1024,2 hPa 0,0 l/m 0 min 2 min 0,0 UV-I 0 W/m 0,0 km/h (0 Bft)
27.06.2013 02:50 11,4 C 10,1 C 93 % 1024,2 hPa 0,2 l/m 0 min 2 min 0,0 UV-I 0 W/m 0,0 km/h (0 Bft)
27.06.2013 02:52 11,4 C 10,1 C 94 % 1024,2 hPa 0,0 l/m 0 min 2 min 0,0 UV-I 0 W/m 0,0 km/h (0 Bft)
27.06.2013 02:54 11,3 C 10,1 C 94 % 1024,2 hPa 0,2 l/m 0 min 2 min 0,0 UV-I 0 W/m 0,0 km/h (0 Bft)
27.06.2013 02:56 11,3 C 10,1 C 94 % 1024,2 hPa 0,2 l/m 0 min 2 min 0,0 UV-I 0 W/m 0,0 km/h (0 Bft)
27.06.2013 02:58 11,3 C 10,1 C 94 % 1024,2 hPa 0,0 l/m 0 min 2 min 0,0 UV-I 0 W/m 0,0 km/h (0 Bft)
27.06.2013 03:00 11,3 C 9,6 C 94 % 1024,2 hPa 0,0 l/m 0 min 2 min 0,0 UV-I 0 W/m 0,0 km/h (0 Bft)
27.06.2013 03:02 11,3 C 10,1 C 94 % 1024,1 hPa 0,0 l/m 0 min 2 min 0,0 UV-I 0 W/m 2,6 km/h (1 Bft)
27.06.2013 03:07 11,2 C 9,6 C 94 % 1024,0 hPa 0,2 l/m 0 min 2 min 0,0 UV-I 0 W/m 2,6 km/h (1 Bft)
27.06.2013 03:10 11,2 C 10,1 C 94 % 1024,0 hPa 0,2 l/m 0 min 2 min 0,0 UV-I 0 W/m 0,0 km/h (0 Bft)
27.06.2013 03:12 11,2 C 9,6 C 94 % 1024,1 hPa 0,0 l/m 0 min 2 min 0,0 UV-I 0 W/m 0,0 km/h (0 Bft)
27.06.2013 03:14 11,2 C 9,6 C 94 % 1024,0 hPa 0,0 l/m 0 min 2 min 0,0 UV-I 0 W/m 0,0 km/h (0 Bft)
27.06.2013 03:16 11,2 C 9,6 C 94 % 1024,0 hPa 0,0 l/m 0 min 2 min 0,0 UV-I 0 W/m 0,0 km/h (0 Bft)
27.06.2013 03:18 11,1 C 9,6 C 94 % 1024,0 hPa 0,0 l/m 0 min 2 min 0,0 UV-I 0 W/m 0,0 km/h (0 Bft)
27.06.2013 03:20 11,1 C 9,6 C 94 % 1023,9 hPa 0,0 l/m 0 min 2 min 0,0 UV-I 0 W/m 0,0 km/h (0 Bft)
27.06.2013 03:22 11,1 C 9,6 C 94 % 1023,9 hPa 0,0 l/m 0 min 2 min 0,0 UV-I 0 W/m 0,0 km/h (0 Bft)
27.06.2013 03:24 11,1 C 9,6 C 94 % 1023,9 hPa 0,0 l/m 0 min 2 min 0,0 UV-I 0 W/m 0,0 km/h (0 Bft)
27.06.2013 03:26 11,1 C 9,6 C 94 % 1023,9 hPa 0,0 l/m 0 min 2 min 0,0 UV-I 0 W/m 0,0 km/h (0 Bft)
27.06.2013 03:28 11,1 C 9,6 C 94 % 1023,9 hPa 0,0 l/m 0 min 2 min 0,0 UV-I 0 W/m 0,0 km/h (0 Bft)
27.06.2013 03:30 11,0 C 9,6 C 94 % 1023,8 hPa 0,0 l/m 0 min 2 min 0,0 UV-I 0 W/m 0,0 km/h (0 Bft)
27.06.2013 03:32 11,0 C 9,6 C 94 % 1023,8 hPa 0,0 l/m 0 min 2 min 0,0 UV-I 0 W/m 0,0 km/h (0 Bft)
27.06.2013 03:34 11,0 C 9,6 C 94 % 1023,8 hPa 0,0 l/m 0 min 2 min 0,0 UV-I 0 W/m 0,0 km/h (0 Bft)
27.06.2013 03:36 10,9 C 9,6 C 94 % 1023,8 hPa 0,0 l/m 0 min 2 min 0,0 UV-I 0 W/m 0,0 km/h (0 Bft)
27.06.2013 03:38 10,9 C 9,6 C 94 % 1023,8 hPa 0,0 l/m 0 min 2 min 0,0 UV-I 0 W/m 0,0 km/h (0 Bft)
27.06.2013 03:40 10,9 C 9,6 C 94 % 1023,8 hPa 0,0 l/m 0 min 2 min 0,0 UV-I 0 W/m 0,0 km/h (0 Bft)
27.06.2013 03:42 10,9 C 9,6 C 94 % 1023,8 hPa 0,0 l/m 0 min 2 min 0,0 UV-I 0 W/m 0,0 km/h (0 Bft)
27.06.2013 03:44 10,9 C 9,6 C 94 % 1023,8 hPa 0,0 l/m 0 min 2 min 0,0 UV-I 0 W/m 0,0 km/h (0 Bft)
27.06.2013 03:46 10,9 C 9,6 C 94 % 1023,8 hPa 0,0 l/m 0 min 2 min 0,0 UV-I 0 W/m 0,0 km/h (0 Bft)
27.06.2013 03:48 10,8 C 9,6 C 94 % 1023,8 hPa 0,0 l/m 0 min 2 min 0,0 UV-I 0 W/m 0,0 km/h (0 Bft)
27.06.2013 03:50 10,8 C 9,6 C 94 % 1023,7 hPa 0,0 l/m 0 min 2 min 0,0 UV-I 0 W/m 0,0 km/h (0 Bft)
27.06.2013 03:52 10,8 C 9,6 C 94 % 1023,7 hPa 0,0 l/m 0 min 2 min 0,0 UV-I 0 W/m 0,0 km/h (0 Bft)
27.06.2013 03:54 10,8 C 9,6 C 94 % 1023,7 hPa 0,0 l/m 0 min 2 min 0,0 UV-I 0 W/m 0,0 km/h (0 Bft)
27.06.2013 03:56 10,8 C 9,6 C 94 % 1023,7 hPa 0,0 l/m 0 min 2 min 0,0 UV-I 0 W/m 0,0 km/h (0 Bft)
27.06.2013 03:58 10,8 C 9,6 C 95 % 1023,7 hPa 0,0 l/m 0 min 2 min 0,0 UV-I 0 W/m 0,0 km/h (0 Bft)
27.06.2013 04:00 10,8 C 9,6 C 95 % 1023,7 hPa 0,0 l/m 0 min 2 min 0,0 UV-I 0 W/m 0,0 km/h (0 Bft)
27.06.2013 04:02 10,8 C 9,6 C 95 % 1023,6 hPa 0,0 l/m 0 min 2 min 0,0 UV-I 0 W/m 0,0 km/h (0 Bft)
27.06.2013 04:06 10,8 C 9,6 C 95 % 1023,6 hPa 0,0 l/m 0 min 2 min 0,0 UV-I 0 W/m 0,0 km/h (0 Bft)
27.06.2013 04:11 10,7 C 9,6 C 95 % 1023,5 hPa 0,0 l/m 0 min 2 min 0,0 UV-I 0 W/m 0,0 km/h (0 Bft)
27.06.2013 04:12 10,7 C 9,6 C 95 % 1023,5 hPa 0,0 l/m 0 min 0 min 0,0 UV-I 0 W/m 0,0 km/h (0 Bft)
27.06.2013 04:17 10,7 C 9,6 C 95 % 1023,5 hPa 0,0 l/m 0 min 2 min 0,0 UV-I 0 W/m 0,0 km/h (0 Bft)
27.06.2013 04:18 10,7 C 9,6 C 95 % 1023,5 hPa 0,0 l/m 0 min 1 min 0,0 UV-I 0 W/m 0,0 km/h (0 Bft)
27.06.2013 04:20 10,7 C 9,6 C 95 % 1023,6 hPa 0,0 l/m 0 min 2 min 0,0 UV-I 0 W/m 0,0 km/h (0 Bft)
27.06.2013 04:22 10,7 C 9,6 C 95 % 1023,5 hPa 0,0 l/m 0 min 2 min 0,0 UV-I 0 W/m 0,0 km/h (0 Bft)
27.06.2013 04:24 10,7 C 9,6 C 95 % 1023,6 hPa 0,0 l/m 0 min 2 min 0,0 UV-I 0 W/m 0,0 km/h (0 Bft)
27.06.2013 04:26 10,7 C 9,6 C 95 % 1023,6 hPa 0,0 l/m 0 min 2 min 0,0 UV-I 0 W/m 0,0 km/h (0 Bft)
27.06.2013 04:28 10,6 C 9,6 C 95 % 1023,5 hPa 0,0 l/m 0 min 2 min 0,0 UV-I 0 W/m 0,0 km/h (0 Bft)
27.06.2013 04:30 10,6 C 9,6 C 95 % 1023,6 hPa 0,0 l/m 0 min 2 min 0,0 UV-I 0 W/m 0,0 km/h (0 Bft)
27.06.2013 04:32 10,6 C 9,6 C 95 % 1023,6 hPa 0,0 l/m 0 min 0 min 0,0 UV-I 0 W/m 0,0 km/h (0 Bft)
27.06.2013 04:34 10,6 C 9,6 C 95 % 1023,6 hPa 0,0 l/m 0 min 0 min 0,0 UV-I 0 W/m 0,0 km/h (0 Bft)
27.06.2013 04:36 10,6 C 9,6 C 95 % 1023,5 hPa 0,0 l/m 0 min 0 min 0,0 UV-I 0 W/m 0,0 km/h (0 Bft)
27.06.2013 04:38 10,6 C 9,6 C 95 % 1023,5 hPa 0,0 l/m 0 min 0 min 0,0 UV-I 0 W/m 0,0 km/h (0 Bft)
27.06.2013 04:40 10,6 C 9,6 C 95 % 1023,5 hPa 0,0 l/m 0 min 0 min 0,0 UV-I 0 W/m 0,0 km/h (0 Bft)
27.06.2013 04:42 10,6 C 9,6 C 95 % 1023,5 hPa 0,0 l/m 0 min 0 min 0,0 UV-I 0 W/m 0,0 km/h (0 Bft)
27.06.2013 04:44 10,6 C 9,6 C 95 % 1023,5 hPa 0,0 l/m 0 min 0 min 0,0 UV-I 0 W/m 0,0 km/h (0 Bft)
27.06.2013 04:46 10,6 C 9,6 C 95 % 1023,5 hPa 0,0 l/m 0 min 0 min 0,0 UV-I 0 W/m 0,0 km/h (0 Bft)
27.06.2013 04:48 10,6 C 9,6 C 95 % 1023,5 hPa 0,0 l/m 0 min 0 min 0,0 UV-I 0 W/m 0,0 km/h (0 Bft)
27.06.2013 04:50 10,6 C 9,6 C 95 % 1023,5 hPa 0,0 l/m 0 min 0 min 0,0 UV-I 0 W/m 0,0 km/h (0 Bft)
27.06.2013 04:52 10,5 C 9,6 C 95 % 1023,5 hPa 0,0 l/m 0 min 0 min 0,0 UV-I 0 W/m 0,0 km/h (0 Bft)
27.06.2013 04:54 10,5 C 9,6 C 95 % 1023,5 hPa 0,0 l/m 0 min 0 min 0,0 UV-I 0 W/m 0,0 km/h (0 Bft)
27.06.2013 04:56 10,5 C 9,6 C 95 % 1023,5 hPa 0,0 l/m 0 min 0 min 0,0 UV-I 0 W/m 0,0 km/h (0 Bft)
27.06.2013 04:58 10,5 C 9,6 C 95 % 1023,5 hPa 0,0 l/m 0 min 0 min 0,0 UV-I 0 W/m 0,0 km/h (0 Bft)
27.06.2013 05:00 10,5 C 9,6 C 95 % 1023,5 hPa 0,0 l/m 0 min 0 min 0,0 UV-I 0 W/m 0,0 km/h (0 Bft)
27.06.2013 05:02 10,5 C 9,6 C 95 % 1023,6 hPa 0,0 l/m 0 min 0 min 0,0 UV-I 0 W/m 0,0 km/h (0 Bft)
27.06.2013 05:06 10,5 C 9,6 C 95 % 1023,6 hPa 0,0 l/m 0 min 0 min 0,0 UV-I 0 W/m 0,0 km/h (0 Bft)
27.06.2013 05:08 10,5 C 9,6 C 95 % 1023,6 hPa 0,0 l/m 0 min 0 min 0,0 UV-I 0 W/m 0,0 km/h (0 Bft)
27.06.2013 05:10 10,6 C 9,6 C 95 % 1023,5 hPa 0,0 l/m 0 min 0 min 0,0 UV-I 0 W/m 0,0 km/h (0 Bft)
27.06.2013 05:12 10,6 C 9,6 C 95 % 1023,5 hPa 0,0 l/m 0 min 0 min 0,0 UV-I 0 W/m 0,0 km/h (0 Bft)
27.06.2013 05:14 10,6 C 9,6 C 95 % 1023,6 hPa 0,0 l/m 0 min 0 min 0,0 UV-I 0 W/m 0,0 km/h (0 Bft)
27.06.2013 05:16 10,6 C 9,6 C 95 % 1023,6 hPa 0,0 l/m 0 min 0 min 0,0 UV-I 0 W/m 0,0 km/h (0 Bft)
27.06.2013 05:18 10,6 C 9,6 C 95 % 1023,5 hPa 0,0 l/m 0 min 0 min 0,0 UV-I 0 W/m 0,0 km/h (0 Bft)
27.06.2013 05:20 10,6 C 9,6 C 95 % 1023,5 hPa 0,0 l/m 0 min 0 min 0,0 UV-I 0 W/m 0,0 km/h (0 Bft)
27.06.2013 05:22 10,6 C 9,6 C 95 % 1023,5 hPa 0,0 l/m 0 min 0 min 0,0 UV-I 0 W/m 0,0 km/h (0 Bft)
27.06.2013 05:24 10,6 C 9,6 C 95 % 1023,5 hPa 0,0 l/m 0 min 0 min 0,0 UV-I 0 W/m 0,0 km/h (0 Bft)
27.06.2013 05:26 10,6 C 9,6 C 95 % 1023,4 hPa 0,0 l/m 0 min 0 min 0,0 UV-I 0 W/m 0,0 km/h (0 Bft)
27.06.2013 05:28 10,6 C 9,6 C 95 % 1023,5 hPa 0,0 l/m 0 min 0 min 0,0 UV-I 0 W/m 0,0 km/h (0 Bft)
27.06.2013 05:30 10,6 C 9,6 C 95 % 1023,5 hPa 0,0 l/m 0 min 0 min 0,0 UV-I 5 W/m 0,0 km/h (0 Bft)
27.06.2013 05:32 10,6 C 9,6 C 95 % 1023,5 hPa 0,0 l/m 0 min 0 min 0,0 UV-I 7 W/m 0,0 km/h (0 Bft)
27.06.2013 05:34 10,6 C 9,6 C 95 % 1023,5 hPa 0,0 l/m 0 min 0 min 0,0 UV-I 9 W/m 0,0 km/h (0 Bft)
27.06.2013 05:36 10,6 C 9,6 C 96 % 1023,5 hPa 0,0 l/m 0 min 0 min 0,0 UV-I 11 W/m 0,0 km/h (0 Bft)
27.06.2013 05:38 10,6 C 9,6 C 96 % 1023,5 hPa 0,0 l/m 0 min 0 min 0,0 UV-I 11 W/m 0,0 km/h (0 Bft)
27.06.2013 05:40 10,6 C 9,6 C 96 % 1023,4 hPa 0,0 l/m 0 min 0 min 0,0 UV-I 11 W/m 0,0 km/h (0 Bft)
27.06.2013 05:42 10,6 C 9,6 C 96 % 1023,4 hPa 0,0 l/m 0 min 0 min 0,0 UV-I 11 W/m 0,0 km/h (0 Bft)
27.06.2013 05:44 10,6 C 9,6 C 96 % 1023,4 hPa 0,0 l/m 0 min 0 min 0,0 UV-I 11 W/m 0,0 km/h (0 Bft)
27.06.2013 05:46 10,5 C 9,6 C 96 % 1023,4 hPa 0,0 l/m 0 min 0 min 0,0 UV-I 11 W/m 0,0 km/h (0 Bft)
27.06.2013 05:48 10,5 C 9,6 C 96 % 1023,4 hPa 0,0 l/m 0 min 0 min 0,0 UV-I 14 W/m 0,0 km/h (0 Bft)
27.06.2013 05:50 10,5 C 9,6 C 96 % 1023,4 hPa 0,0 l/m 0 min 0 min 0,0 UV-I 16 W/m 0,0 km/h (0 Bft)
27.06.2013 05:52 10,5 C 9,6 C 96 % 1023,4 hPa 0,0 l/m 0 min 0 min 0,0 UV-I 16 W/m 0,0 km/h (0 Bft)
27.06.2013 05:54 10,5 C 9,6 C 96 % 1023,4 hPa 0,0 l/m 0 min 0 min 0,0 UV-I 16 W/m 0,0 km/h (0 Bft)
27.06.2013 05:56 10,5 C 9,6 C 96 % 1023,4 hPa 0,0 l/m 0 min 0 min 0,0 UV-I 14 W/m 0,0 km/h (0 Bft)
27.06.2013 05:58 10,5 C 9,6 C 96 % 1023,4 hPa 0,0 l/m 0 min 0 min 0,0 UV-I 12 W/m 0,0 km/h (0 Bft)
27.06.2013 06:00 10,5 C 9,6 C 96 % 1023,4 hPa 0,0 l/m 0 min 0 min 0,0 UV-I 12 W/m 0,0 km/h (0 Bft)
27.06.2013 06:02 10,5 C 9,6 C 96 % 1023,4 hPa 0,0 l/m 0 min 0 min 0,0 UV-I 18 W/m 0,0 km/h (0 Bft)
27.06.2013 06:06 10,5 C 9,6 C 96 % 1023,4 hPa 0,0 l/m 0 min 0 min 0,0 UV-I 18 W/m 0,0 km/h (0 Bft)
27.06.2013 06:08 10,4 C 9,6 C 96 % 1023,3 hPa 0,0 l/m 0 min 0 min 0,0 UV-I 18 W/m 0,0 km/h (0 Bft)
27.06.2013 06:10 10,5 C 9,6 C 96 % 1023,3 hPa 0,0 l/m 0 min 0 min 0,0 UV-I 21 W/m 0,0 km/h (0 Bft)
27.06.2013 06:12 10,5 C 9,6 C 96 % 1023,3 hPa 0,0 l/m 0 min 0 min 0,0 UV-I 23 W/m 0,0 km/h (0 Bft)
27.06.2013 06:14 10,5 C 9,6 C 96 % 1023,3 hPa 0,0 l/m 0 min 0 min 0,0 UV-I 25 W/m 0,0 km/h (0 Bft)
27.06.2013 06:16 10,5 C 9,6 C 96 % 1023,3 hPa 0,0 l/m 0 min 0 min 0,0 UV-I 25 W/m 0,0 km/h (0 Bft)
27.06.2013 06:18 10,6 C 9,6 C 96 % 1023,2 hPa 0,0 l/m 0 min 0 min 0,0 UV-I 25 W/m 0,0 km/h (0 Bft)
27.06.2013 06:20 10,6 C 10,1 C 96 % 1023,2 hPa 0,0 l/m 0 min 0 min 0,0 UV-I 30 W/m 0,0 km/h (0 Bft)
27.06.2013 06:22 10,6 C 9,6 C 96 % 1023,2 hPa 0,0 l/m 0 min 0 min 0,0 UV-I 37 W/m 0,0 km/h (0 Bft)
27.06.2013 06:24 10,6 C 9,6 C 96 % 1023,1 hPa 0,0 l/m 0 min 0 min 0,0 UV-I 42 W/m 0,0 km/h (0 Bft)
27.06.2013 06:26 10,6 C 9,6 C 96 % 1023,2 hPa 0,0 l/m 0 min 0 min 0,0 UV-I 47 W/m 0,0 km/h (0 Bft)
27.06.2013 06:28 10,6 C 9,6 C 96 % 1023,2 hPa 0,0 l/m 0 min 0 min 0,0 UV-I 49 W/m 0,0 km/h (0 Bft)
27.06.2013 06:30 10,6 C 10,1 C 96 % 1023,1 hPa 0,0 l/m 0 min 0 min 0,0 UV-I 42 W/m 0,0 km/h (0 Bft)
27.06.2013 06:32 10,6 C 10,1 C 96 % 1023,1 hPa 0,0 l/m 0 min 0 min 0,0 UV-I 35 W/m 0,0 km/h (0 Bft)
27.06.2013 06:34 10,6 C 10,1 C 96 % 1023,1 hPa 0,0 l/m 0 min 0 min 0,0 UV-I 37 W/m 0,0 km/h (0 Bft)
27.06.2013 06:36 10,6 C 10,1 C 96 % 1023,2 hPa 0,0 l/m 0 min 0 min 0,0 UV-I 40 W/m 0,0 km/h (0 Bft)
27.06.2013 06:38 10,7 C 10,1 C 96 % 1023,1 hPa 0,0 l/m 0 min 0 min 0,0 UV-I 54 W/m 0,0 km/h (0 Bft)
27.06.2013 06:40 10,7 C 10,1 C 96 % 1023,1 hPa 0,0 l/m 0 min 0 min 0,0 UV-I 46 W/m 0,0 km/h (0 Bft)
27.06.2013 06:42 10,7 C 10,1 C 96 % 1023,1 hPa 0,0 l/m 0 min 0 min 0,0 UV-I 37 W/m 2,6 km/h (1 Bft)
27.06.2013 06:44 10,7 C 10,1 C 96 % 1023,1 hPa 0,0 l/m 0 min 0 min 0,0 UV-I 21 W/m 0,0 km/h (0 Bft)
27.06.2013 06:46 10,7 C 10,1 C 96 % 1023,2 hPa 0,0 l/m 0 min 0 min 0,0 UV-I 14 W/m 0,0 km/h (0 Bft)
27.06.2013 06:48 10,7 C 10,1 C 96 % 1023,1 hPa 0,0 l/m 0 min 0 min 0,0 UV-I 12 W/m 0,0 km/h (0 Bft)
27.06.2013 06:50 10,7 C 10,1 C 96 % 1023,1 hPa 0,0 l/m 0 min 0 min 0,0 UV-I 14 W/m 0,0 km/h (0 Bft)
27.06.2013 06:52 10,7 C 10,1 C 96 % 1023,1 hPa 0,0 l/m 0 min 0 min 0,0 UV-I 21 W/m 0,0 km/h (0 Bft)
27.06.2013 06:54 10,7 C 10,1 C 96 % 1023,1 hPa 0,0 l/m 0 min 0 min 0,0 UV-I 35 W/m 0,0 km/h (0 Bft)
27.06.2013 06:56 10,7 C 10,1 C 96 % 1023,2 hPa 0,0 l/m 0 min 0 min 0,0 UV-I 53 W/m 0,0 km/h (0 Bft)
27.06.2013 06:58 10,7 C 10,1 C 96 % 1023,1 hPa 0,0 l/m 0 min 0 min 0,0 UV-I 58 W/m 0,0 km/h (0 Bft)
27.06.2013 07:00 10,7 C 10,1 C 96 % 1023,1 hPa 0,0 l/m 0 min 0 min 0,0 UV-I 54 W/m 0,0 km/h (0 Bft)
27.06.2013 07:02 10,8 C 10,1 C 96 % 1023,1 hPa 0,0 l/m 0 min 0 min 0,0 UV-I 47 W/m 5,1 km/h (1 Bft)
27.06.2013 07:06 10,7 C 10,1 C 97 % 1023,1 hPa 0,0 l/m 0 min 0 min 0,0 UV-I 35 W/m 0,0 km/h (0 Bft)
27.06.2013 07:08 10,8 C 10,1 C 97 % 1023,1 hPa 0,0 l/m 0 min 0 min 0,0 UV-I 32 W/m 0,0 km/h (0 Bft)
27.06.2013 07:10 10,8 C 10,1 C 97 % 1023,1 hPa 0,0 l/m 0 min 0 min 0,0 UV-I 37 W/m 0,0 km/h (0 Bft)
27.06.2013 07:12 10,8 C 10,1 C 97 % 1023,1 hPa 0,0 l/m 0 min 0 min 0,0 UV-I 39 W/m 0,0 km/h (0 Bft)
27.06.2013 07:14 10,8 C 10,1 C 97 % 1023,1 hPa 0,0 l/m 0 min 0 min 0,0 UV-I 44 W/m 0,0 km/h (0 Bft)
27.06.2013 07:16 10,8 C 10,1 C 97 % 1023,1 hPa 0,0 l/m 0 min 0 min 0,0 UV-I 53 W/m 0,0 km/h (0 Bft)
27.06.2013 07:18 10,8 C 10,1 C 97 % 1023,1 hPa 0,0 l/m 0 min 0 min 0,0 UV-I 62 W/m 0,0 km/h (0 Bft)
27.06.2013 07:20 10,8 C 10,1 C 97 % 1023,1 hPa 0,0 l/m 0 min 0 min 0,0 UV-I 97 W/m 0,0 km/h (0 Bft)
27.06.2013 07:22 10,8 C 10,7 C 97 % 1023,1 hPa 0,0 l/m 0 min 0 min 0,0 UV-I 90 W/m 2,6 km/h (1 Bft)
27.06.2013 07:24 10,9 C 10,7 C 97 % 1023,1 hPa 0,0 l/m 0 min 0 min 0,0 UV-I 62 W/m 0,0 km/h (0 Bft)
27.06.2013 07:26 10,9 C 10,1 C 97 % 1023,1 hPa 0,0 l/m 0 min 0 min 0,0 UV-I 47 W/m 0,0 km/h (0 Bft)
27.06.2013 07:28 10,9 C 10,1 C 97 % 1023,1 hPa 0,0 l/m 0 min 0 min 0,0 UV-I 51 W/m 0,0 km/h (0 Bft)
27.06.2013 07:30 10,9 C 10,1 C 97 % 1023,1 hPa 0,0 l/m 0 min 0 min 0,0 UV-I 58 W/m 0,0 km/h (0 Bft)
27.06.2013 07:32 10,9 C 10,1 C 97 % 1023,1 hPa 0,0 l/m 0 min 0 min 0,0 UV-I 69 W/m 2,6 km/h (1 Bft)
27.06.2013 07:34 10,9 C 10,7 C 97 % 1023,1 hPa 0,0 l/m 0 min 0 min 0,0 UV-I 74 W/m 0,0 km/h (0 Bft)
27.06.2013 07:36 10,9 C 10,7 C 97 % 1023,1 hPa 0,0 l/m 0 min 0 min 0,0 UV-I 76 W/m 0,0 km/h (0 Bft)
27.06.2013 07:38 11,0 C 10,7 C 97 % 1023,1 hPa 0,0 l/m 0 min 0 min 0,0 UV-I 83 W/m 0,0 km/h (0 Bft)
27.06.2013 07:40 11,0 C 10,7 C 97 % 1023,1 hPa 0,0 l/m 0 min 0 min 0,0 UV-I 83 W/m 0,0 km/h (0 Bft)
27.06.2013 07:42 11,0 C 10,7 C 97 % 1023,1 hPa 0,0 l/m 0 min 0 min 0,0 UV-I 90 W/m 0,0 km/h (0 Bft)
27.06.2013 07:44 11,1 C 10,7 C 97 % 1023,1 hPa 0,0 l/m 0 min 0 min 0,0 UV-I 98 W/m 0,0 km/h (0 Bft)
27.06.2013 07:46 11,1 C 10,7 C 97 % 1023,2 hPa 0,0 l/m 0 min 0 min 0,0 UV-I 84 W/m 0,0 km/h (0 Bft)
27.06.2013 07:48 11,1 C 10,7 C 97 % 1023,1 hPa 0,0 l/m 0 min 0 min 0,0 UV-I 144 W/m 0,0 km/h (0 Bft)
27.06.2013 07:50 11,1 C 10,7 C 97 % 1023,2 hPa 0,0 l/m 0 min 0 min 0,0 UV-I 132 W/m 0,0 km/h (0 Bft)
27.06.2013 07:52 11,2 C 10,7 C 97 % 1023,1 hPa 0,0 l/m 0 min 0 min 0,0 UV-I 109 W/m 0,0 km/h (0 Bft)
27.06.2013 07:54 11,2 C 10,7 C 97 % 1023,1 hPa 0,0 l/m 0 min 0 min 0,0 UV-I 98 W/m 0,0 km/h (0 Bft)
27.06.2013 07:56 11,2 C 10,7 C 97 % 1023,1 hPa 0,0 l/m 0 min 0 min 0,0 UV-I 86 W/m 0,0 km/h (0 Bft)
27.06.2013 07:58 11,3 C 10,7 C 97 % 1023,1 hPa 0,0 l/m 0 min 0 min 0,0 UV-I 74 W/m 0,0 km/h (0 Bft)
27.06.2013 08:00 11,3 C 10,7 C 97 % 1023,1 hPa 0,0 l/m 0 min 0 min 0,0 UV-I 77 W/m 0,0 km/h (0 Bft)
27.06.2013 08:02 11,3 C 10,7 C 97 % 1023,1 hPa 0,0 l/m 0 min 0 min 0,0 UV-I 86 W/m 0,0 km/h (0 Bft)
27.06.2013 08:06 11,3 C 11,2 C 97 % 1023,1 hPa 0,0 l/m 0 min 0 min 0,0 UV-I 114 W/m 2,6 km/h (1 Bft)
27.06.2013 08:08 11,4 C 11,2 C 97 % 1023,1 hPa 0,0 l/m 0 min 0 min 0,0 UV-I 135 W/m 0,0 km/h (0 Bft)
27.06.2013 08:10 11,4 C 11,2 C 97 % 1023,0 hPa 0,0 l/m 0 min 0 min 0,0 UV-I 148 W/m 0,0 km/h (0 Bft)
27.06.2013 08:12 11,5 C 11,2 C 97 % 1023,0 hPa 0,0 l/m 0 min 0 min 0,0 UV-I 186 W/m 0,0 km/h (0 Bft)
27.06.2013 08:14 11,6 C 11,2 C 97 % 1023,1 hPa 0,0 l/m 2 min 0 min 0,0 UV-I 218 W/m 0,0 km/h (0 Bft)
27.06.2013 08:16 11,6 C 11,2 C 97 % 1023,1 hPa 0,0 l/m 0 min 0 min 0,0 UV-I 141 W/m 0,0 km/h (0 Bft)
27.06.2013 08:18 11,7 C 11,2 C 97 % 1023,1 hPa 0,0 l/m 0 min 0 min 0,0 UV-I 88 W/m 0,0 km/h (0 Bft)
27.06.2013 08:20 11,7 C 11,2 C 97 % 1023,0 hPa 0,0 l/m 0 min 0 min 0,0 UV-I 77 W/m 0,0 km/h (0 Bft)
27.06.2013 08:22 11,8 C 11,2 C 97 % 1023,1 hPa 0,0 l/m 0 min 0 min 0,0 UV-I 69 W/m 0,0 km/h (0 Bft)
27.06.2013 08:24 11,8 C 11,2 C 97 % 1023,1 hPa 0,0 l/m 0 min 0 min 0,0 UV-I 58 W/m 0,0 km/h (0 Bft)
27.06.2013 08:26 11,8 C 11,2 C 97 % 1023,1 hPa 0,0 l/m 0 min 0 min 0,0 UV-I 60 W/m 0,0 km/h (0 Bft)
27.06.2013 08:28 11,8 C 11,2 C 97 % 1023,1 hPa 0,0 l/m 0 min 0 min 0,0 UV-I 65 W/m 5,1 km/h (1 Bft)
27.06.2013 08:30 11,8 C 11,2 C 97 % 1023,1 hPa 0,0 l/m 0 min 0 min 0,0 UV-I 93 W/m 0,0 km/h (0 Bft)
27.06.2013 08:32 11,8 C 11,2 C 97 % 1023,1 hPa 0,0 l/m 0 min 0 min 0,0 UV-I 98 W/m 0,0 km/h (0 Bft)
27.06.2013 08:34 11,8 C 11,2 C 97 % 1023,1 hPa 0,0 l/m 0 min 0 min 0,0 UV-I 121 W/m 0,0 km/h (0 Bft)
27.06.2013 08:36 11,9 C 11,8 C 97 % 1023,1 hPa 0,0 l/m 0 min 0 min 0,0 UV-I 199 W/m 0,0 km/h (0 Bft)
27.06.2013 08:38 11,9 C 11,8 C 97 % 1023,1 hPa 0,0 l/m 0 min 0 min 0,0 UV-I 221 W/m 2,6 km/h (1 Bft)
27.06.2013 08:40 11,9 C 11,8 C 97 % 1023,0 hPa 0,0 l/m 2 min 0 min 0,0 UV-I 329 W/m 5,1 km/h (1 Bft)
27.06.2013 08:42 11,9 C 11,8 C 98 % 1023,1 hPa 0,0 l/m 0 min 0 min 0,0 UV-I 213 W/m 10,3 km/h (2 Bft)
27.06.2013 08:44 11,9 C 11,8 C 98 % 1023,0 hPa 0,0 l/m 0 min 0 min 0,0 UV-I 211 W/m 10,3 km/h (2 Bft)
27.06.2013 08:46 12,0 C 11,8 C 98 % 1023,2 hPa 0,0 l/m 0 min 0 min 0,0 UV-I 232 W/m 10,3 km/h (2 Bft)
27.06.2013 08:48 11,9 C 11,8 C 98 % 1023,1 hPa 0,0 l/m 0 min 0 min 0,0 UV-I 204 W/m 12,9 km/h (3 Bft)
27.06.2013 08:50 12,0 C 11,8 C 98 % 1023,1 hPa 0,0 l/m 0 min 0 min 0,0 UV-I 220 W/m 2,6 km/h (1 Bft)
27.06.2013 08:52 12,0 C 11,8 C 98 % 1023,1 hPa 0,0 l/m 0 min 0 min 0,0 UV-I 188 W/m 10,3 km/h (2 Bft)
27.06.2013 08:54 12,0 C 11,8 C 98 % 1023,1 hPa 0,0 l/m 0 min 0 min 0,0 UV-I 148 W/m 10,3 km/h (2 Bft)
27.06.2013 08:56 12,1 C 11,8 C 97 % 1023,2 hPa 0,0 l/m 0 min 0 min 0,0 UV-I 146 W/m 12,9 km/h (3 Bft)
27.06.2013 08:58 12,1 C 11,8 C 97 % 1023,1 hPa 0,0 l/m 0 min 0 min 0,0 UV-I 207 W/m 2,6 km/h (1 Bft)
27.06.2013 09:00 12,1 C 11,8 C 97 % 1023,2 hPa 0,0 l/m 0 min 0 min 0,0 UV-I 258 W/m 10,3 km/h (2 Bft)
27.06.2013 09:02 12,1 C 12,3 C 97 % 1023,2 hPa 0,0 l/m 2 min 0 min 0,5 UV-I 345 W/m 0,0 km/h (0 Bft)
27.06.2013 09:06 12,3 C 12,3 C 97 % 1023,2 hPa 0,0 l/m 0 min 0 min 0,0 UV-I 237 W/m 7,7 km/h (2 Bft)
27.06.2013 09:08 12,4 C 12,3 C 97 % 1023,3 hPa 0,0 l/m 0 min 0 min 0,0 UV-I 213 W/m 5,1 km/h (1 Bft)
27.06.2013 09:10 12,4 C 12,3 C 97 % 1023,2 hPa 0,0 l/m 0 min 0 min 0,0 UV-I 232 W/m 5,1 km/h (1 Bft)
27.06.2013 09:12 12,4 C 12,3 C 97 % 1023,3 hPa 0,0 l/m 0 min 0 min 0,0 UV-I 253 W/m 12,9 km/h (3 Bft)
27.06.2013 09:14 12,4 C 12,3 C 96 % 1023,2 hPa 0,0 l/m 0 min 0 min 0,0 UV-I 258 W/m 10,3 km/h (2 Bft)
27.06.2013 09:16 12,4 C 12,3 C 96 % 1023,2 hPa 0,0 l/m 0 min 0 min 0,0 UV-I 257 W/m 12,9 km/h (3 Bft)
27.06.2013 09:18 12,4 C 12,3 C 96 % 1023,2 hPa 0,0 l/m 0 min 0 min 0,0 UV-I 257 W/m 7,7 km/h (2 Bft)
27.06.2013 09:20 12,5 C 12,3 C 95 % 1023,3 hPa 0,0 l/m 0 min 0 min 0,0 UV-I 244 W/m 5,1 km/h (1 Bft)
27.06.2013 09:22 12,6 C 12,3 C 94 % 1023,3 hPa 0,0 l/m 0 min 0 min 0,0 UV-I 269 W/m 15,4 km/h (3 Bft)
27.06.2013 09:24 12,7 C 12,9 C 94 % 1023,3 hPa 0,0 l/m 0 min 0 min 0,0 UV-I 258 W/m 10,3 km/h (2 Bft)
27.06.2013 09:26 12,8 C 12,9 C 93 % 1023,2 hPa 0,0 l/m 0 min 0 min 0,0 UV-I 232 W/m 2,6 km/h (1 Bft)
27.06.2013 09:28 12,8 C 12,9 C 93 % 1023,2 hPa 0,0 l/m 0 min 0 min 0,0 UV-I 178 W/m 5,1 km/h (1 Bft)
27.06.2013 09:30 12,9 C 12,9 C 93 % 1023,3 hPa 0,0 l/m 0 min 0 min 0,0 UV-I 141 W/m 12,9 km/h (3 Bft)
27.06.2013 09:32 12,9 C 12,3 C 93 % 1023,2 hPa 0,0 l/m 0 min 0 min 0,0 UV-I 158 W/m 15,4 km/h (3 Bft)
27.06.2013 09:34 12,8 C 12,3 C 92 % 1023,3 hPa 0,0 l/m 0 min 0 min 0,0 UV-I 185 W/m 15,4 km/h (3 Bft)
27.06.2013 09:36 12,7 C 12,3 C 91 % 1023,3 hPa 0,0 l/m 0 min 0 min 0,0 UV-I 193 W/m 7,7 km/h (2 Bft)
27.06.2013 09:38 12,7 C 12,3 C 91 % 1023,2 hPa 0,0 l/m 0 min 0 min 0,0 UV-I 200 W/m 10,3 km/h (2 Bft)
27.06.2013 09:40 12,7 C 12,9 C 91 % 1023,3 hPa 0,0 l/m 0 min 0 min 0,5 UV-I 218 W/m 5,1 km/h (1 Bft)
27.06.2013 09:42 12,7 C 12,3 C 91 % 1023,3 hPa 0,0 l/m 0 min 0 min 0,6 UV-I 246 W/m 12,9 km/h (3 Bft)
27.06.2013 09:44 12,6 C 12,3 C 90 % 1023,3 hPa 0,0 l/m 0 min 0 min 0,7 UV-I 267 W/m 15,4 km/h (3 Bft)
27.06.2013 09:46 12,6 C 12,9 C 90 % 1023,3 hPa 0,0 l/m 0 min 0 min 0,7 UV-I 281 W/m 7,7 km/h (2 Bft)
27.06.2013 09:48 12,7 C 12,9 C 90 % 1023,3 hPa 0,0 l/m 0 min 0 min 0,6 UV-I 271 W/m 12,9 km/h (3 Bft)
27.06.2013 09:50 12,7 C 12,9 C 90 % 1023,3 hPa 0,0 l/m 0 min 0 min 0,5 UV-I 244 W/m 15,4 km/h (3 Bft)
27.06.2013 09:52 12,7 C 12,9 C 90 % 1023,3 hPa 0,0 l/m 0 min 0 min 0,6 UV-I 246 W/m 10,3 km/h (2 Bft)
27.06.2013 09:54 12,8 C 12,9 C 90 % 1023,3 hPa 0,0 l/m 0 min 0 min 0,7 UV-I 272 W/m 7,7 km/h (2 Bft)
27.06.2013 09:56 12,9 C 12,9 C 90 % 1023,3 hPa 0,0 l/m 0 min 0 min 0,8 UV-I 295 W/m 0,0 km/h (0 Bft)
27.06.2013 09:58 12,9 C 13,4 C 90 % 1023,3 hPa 0,0 l/m 0 min 0 min 0,8 UV-I 313 W/m 7,7 km/h (2 Bft)
27.06.2013 10:00 13,0 C 13,4 C 90 % 1023,3 hPa 0,0 l/m 0 min 0 min 0,7 UV-I 290 W/m 12,9 km/h (3 Bft)
27.06.2013 10:02 12,9 C 13,4 C 89 % 1023,4 hPa 0,0 l/m 0 min 0 min 0,6 UV-I 285 W/m 12,9 km/h (3 Bft)
27.06.2013 10:06 13,1 C 13,4 C 90 % 1023,3 hPa 0,0 l/m 0 min 0 min 0,7 UV-I 285 W/m 10,3 km/h (2 Bft)
27.06.2013 10:08 13,1 C 13,4 C 89 % 1023,3 hPa 0,0 l/m 0 min 0 min 0,7 UV-I 299 W/m 10,3 km/h (2 Bft)
27.06.2013 10:10 13,1 C 13,4 C 89 % 1023,2 hPa 0,0 l/m 0 min 0 min 0,8 UV-I 329 W/m 12,9 km/h (3 Bft)
27.06.2013 10:12 13,2 C 13,4 C 89 % 1023,2 hPa 0,0 l/m 0 min 0 min 0,8 UV-I 304 W/m 12,9 km/h (3 Bft)
27.06.2013 10:14 13,2 C 13,4 C 90 % 1023,3 hPa 0,0 l/m 0 min 0 min 0,9 UV-I 302 W/m 10,3 km/h (2 Bft)
27.06.2013 10:16 13,3 C 13,4 C 89 % 1023,3 hPa 0,0 l/m 0 min 0 min 0,9 UV-I 295 W/m 12,9 km/h (3 Bft)
27.06.2013 10:18 13,3 C 13,4 C 88 % 1023,3 hPa 0,0 l/m 0 min 0 min 0,9 UV-I 301 W/m 12,9 km/h (3 Bft)
27.06.2013 10:20 13,3 C 14,0 C 88 % 1023,2 hPa 0,0 l/m 0 min 0 min 1,0 UV-I 301 W/m 10,3 km/h (2 Bft)
27.06.2013 10:22 13,3 C 14,0 C 89 % 1023,3 hPa 0,0 l/m 0 min 0 min 1,1 UV-I 309 W/m 7,7 km/h (2 Bft)
27.06.2013 10:24 13,4 C 14,0 C 88 % 1023,3 hPa 0,0 l/m 0 min 0 min 1,1 UV-I 322 W/m 18,0 km/h (3 Bft)
27.06.2013 10:26 13,3 C 13,4 C 87 % 1023,3 hPa 0,0 l/m 0 min 0 min 1,1 UV-I 336 W/m 15,4 km/h (3 Bft)
27.06.2013 10:28 13,3 C 14,0 C 87 % 1023,3 hPa 0,0 l/m 0 min 0 min 1,1 UV-I 338 W/m 15,4 km/h (3 Bft)
27.06.2013 10:30 13,3 C 14,0 C 87 % 1023,3 hPa 0,0 l/m 0 min 0 min 1,1 UV-I 332 W/m 12,9 km/h (3 Bft)
27.06.2013 10:32 13,4 C 14,0 C 87 % 1023,3 hPa 0,0 l/m 0 min 0 min 1,1 UV-I 325 W/m 10,3 km/h (2 Bft)
27.06.2013 10:34 13,4 C 14,0 C 87 % 1023,3 hPa 0,0 l/m 0 min 0 min 1,1 UV-I 323 W/m 7,7 km/h (2 Bft)
27.06.2013 10:36 13,5 C 14,0 C 87 % 1023,3 hPa 0,0 l/m 0 min 0 min 1,2 UV-I 325 W/m 10,3 km/h (2 Bft)
27.06.2013 10:38 13,6 C 14,0 C 87 % 1023,3 hPa 0,0 l/m 0 min 0 min 1,2 UV-I 332 W/m 10,3 km/h (2 Bft)
27.06.2013 10:40 13,5 C 14,0 C 86 % 1023,3 hPa 0,0 l/m 0 min 0 min 1,3 UV-I 350 W/m 10,3 km/h (2 Bft)
27.06.2013 10:42 13,4 C 14,0 C 85 % 1023,3 hPa 0,0 l/m 0 min 0 min 1,4 UV-I 364 W/m 10,3 km/h (2 Bft)
27.06.2013 10:44 13,5 C 14,6 C 85 % 1023,3 hPa 0,0 l/m 0 min 0 min 1,4 UV-I 381 W/m 0,0 km/h (0 Bft)
27.06.2013 10:46 13,4 C 14,6 C 85 % 1023,3 hPa 0,0 l/m 0 min 0 min 1,5 UV-I 394 W/m 15,4 km/h (3 Bft)
27.06.2013 10:48 13,6 C 14,6 C 85 % 1023,3 hPa 0,0 l/m 2 min 0 min 1,6 UV-I 413 W/m 7,7 km/h (2 Bft)
27.06.2013 10:50 13,8 C 15,1 C 86 % 1023,3 hPa 0,0 l/m 2 min 0 min 1,8 UV-I 478 W/m 5,1 km/h (1 Bft)
27.06.2013 10:52 14,0 C 15,1 C 86 % 1023,3 hPa 0,0 l/m 2 min 0 min 1,6 UV-I 411 W/m 5,1 km/h (1 Bft)
27.06.2013 10:54 14,1 C 15,1 C 85 % 1023,2 hPa 0,0 l/m 0 min 0 min 1,6 UV-I 401 W/m 2,6 km/h (1 Bft)
27.06.2013 10:56 14,2 C 15,1 C 85 % 1023,3 hPa 0,0 l/m 2 min 0 min 1,7 UV-I 415 W/m 12,9 km/h (3 Bft)
27.06.2013 10:58 14,0 C 15,1 C 83 % 1023,3 hPa 0,0 l/m 2 min 0 min 1,8 UV-I 425 W/m 7,7 km/h (2 Bft)
27.06.2013 11:00 14,0 C 15,1 C 84 % 1023,2 hPa 0,0 l/m 2 min 0 min 1,9 UV-I 441 W/m 0,0 km/h (0 Bft)
27.06.2013 11:02 14,3 C 15,7 C 86 % 1023,2 hPa 0,0 l/m 2 min 0 min 1,9 UV-I 461 W/m 0,0 km/h (0 Bft)
27.06.2013 11:06 14,5 C 15,7 C 85 % 1023,2 hPa 0,0 l/m 2 min 0 min 2,0 UV-I 492 W/m 7,7 km/h (2 Bft)
27.06.2013 11:08 14,6 C 16,2 C 85 % 1023,2 hPa 0,0 l/m 2 min 0 min 1,8 UV-I 450 W/m 0,0 km/h (0 Bft)
27.06.2013 11:10 14,8 C 16,2 C 85 % 1023,2 hPa 0,0 l/m 0 min 0 min 1,5 UV-I 401 W/m 10,3 km/h (2 Bft)
27.06.2013 11:12 14,8 C 15,7 C 84 % 1023,2 hPa 0,0 l/m 0 min 0 min 1,1 UV-I 323 W/m 10,3 km/h (2 Bft)
27.06.2013 11:14 14,7 C 15,1 C 82 % 1023,2 hPa 0,0 l/m 0 min 0 min 0,8 UV-I 237 W/m 0,0 km/h (0 Bft)
27.06.2013 11:16 14,6 C 15,1 C 82 % 1023,2 hPa 0,0 l/m 0 min 0 min 0,7 UV-I 227 W/m 0,0 km/h (0 Bft)
27.06.2013 11:18 14,6 C 14,6 C 83 % 1023,2 hPa 0,0 l/m 0 min 0 min 0,8 UV-I 206 W/m 7,7 km/h (2 Bft)
27.06.2013 11:20 14,5 C 14,6 C 82 % 1023,2 hPa 0,0 l/m 0 min 0 min 1,1 UV-I 211 W/m 10,3 km/h (2 Bft)
27.06.2013 11:22 14,6 C 14,6 C 85 % 1023,2 hPa 0,0 l/m 0 min 0 min 1,3 UV-I 234 W/m 0,0 km/h (0 Bft)
27.06.2013 11:24 14,5 C 14,6 C 84 % 1023,2 hPa 0,0 l/m 0 min 0 min 1,5 UV-I 250 W/m 2,6 km/h (1 Bft)
27.06.2013 11:26 14,4 C 14,6 C 84 % 1023,2 hPa 0,0 l/m 0 min 0 min 1,9 UV-I 297 W/m 10,3 km/h (2 Bft)
27.06.2013 11:28 14,5 C 16,2 C 85 % 1023,3 hPa 0,0 l/m 0 min 0 min 3,1 UV-I 297 W/m 5,1 km/h (1 Bft)
27.06.2013 11:30 14,7 C 17,3 C 85 % 1023,2 hPa 0,0 l/m 2 min 0 min 3,0 UV-I 494 W/m 5,1 km/h (1 Bft)
27.06.2013 11:32 15,1 C 19,6 C 85 % 1023,2 hPa 0,0 l/m 2 min 0 min 4,3 UV-I 972 W/m 10,3 km/h (2 Bft)
27.06.2013 11:34 15,4 C 21,8 C 81 % 1023,2 hPa 0,0 l/m 2 min 0 min 4,2 UV-I 998 W/m 2,6 km/h (1 Bft)
27.06.2013 11:36 15,4 C 20,1 C 76 % 1023,2 hPa 0,0 l/m 2 min 0 min 2,8 UV-I 594 W/m 18,0 km/h (3 Bft)
27.06.2013 11:38 15,6 C 21,2 C 80 % 1023,2 hPa 0,0 l/m 2 min 0 min 3,9 UV-I 1030 W/m 0,0 km/h (0 Bft)
27.06.2013 11:40 16,1 C 21,8 C 82 % 1023,1 hPa 0,0 l/m 2 min 0 min 3,2 UV-I 714 W/m 0,0 km/h (0 Bft)
27.06.2013 11:42 16,1 C 19,6 C 77 % 1023,2 hPa 0,0 l/m 0 min 0 min 1,2 UV-I 276 W/m 12,9 km/h (3 Bft)
27.06.2013 11:44 16,0 C 18,4 C 79 % 1023,2 hPa 0,0 l/m 0 min 0 min 1,2 UV-I 274 W/m 2,6 km/h (1 Bft)
27.06.2013 11:46 15,8 C 17,3 C 79 % 1023,2 hPa 0,0 l/m 0 min 0 min 1,4 UV-I 309 W/m 7,7 km/h (2 Bft)
27.06.2013 11:48 15,7 C 16,8 C 79 % 1023,2 hPa 0,0 l/m 0 min 0 min 1,5 UV-I 343 W/m 10,3 km/h (2 Bft)
27.06.2013 11:50 15,3 C 16,2 C 76 % 1023,1 hPa 0,0 l/m 0 min 0 min 1,0 UV-I 294 W/m 5,1 km/h (1 Bft)
27.06.2013 11:52 15,3 C 16,2 C 80 % 1023,1 hPa 0,0 l/m 0 min 0 min 0,0 UV-I 294 W/m 0,0 km/h (0 Bft)
27.06.2013 11:54 15,3 C 15,7 C 80 % 1023,2 hPa 0,0 l/m 0 min 0 min 0,0 UV-I 116 W/m 2,6 km/h (1 Bft)
27.06.2013 11:56 15,3 C 15,1 C 79 % 1023,2 hPa 0,0 l/m 0 min 0 min 0,0 UV-I 123 W/m 2,6 km/h (1 Bft)
27.06.2013 11:58 15,3 C 15,1 C 77 % 1023,2 hPa 0,0 l/m 0 min 0 min 0,0 UV-I 146 W/m 20,6 km/h (4 Bft)
27.06.2013 12:00 15,2 C 14,6 C 76 % 1023,2 hPa 0,0 l/m 0 min 0 min 0,5 UV-I 183 W/m 18,0 km/h (3 Bft)
27.06.2013 12:02 15,2 C 14,6 C 75 % 1023,3 hPa 0,0 l/m 0 min 0 min 0,8 UV-I 206 W/m 15,4 km/h (3 Bft)
27.06.2013 12:06 15,2 C 14,6 C 75 % 1023,2 hPa 0,0 l/m 0 min 0 min 1,1 UV-I 260 W/m 12,9 km/h (3 Bft)
27.06.2013 12:08 15,2 C 15,1 C 76 % 1023,2 hPa 0,0 l/m 0 min 0 min 1,3 UV-I 278 W/m 7,7 km/h (2 Bft)
27.06.2013 12:10 15,3 C 15,1 C 77 % 1023,2 hPa 0,0 l/m 0 min 0 min 1,5 UV-I 302 W/m 2,6 km/h (1 Bft)
27.06.2013 12:12 15,3 C 15,1 C 77 % 1023,2 hPa 0,0 l/m 0 min 0 min 1,7 UV-I 343 W/m 0,0 km/h (0 Bft)
27.06.2013 12:14 15,3 C 15,7 C 77 % 1023,2 hPa 0,0 l/m 0 min 0 min 1,9 UV-I 355 W/m 0,0 km/h (0 Bft)
27.06.2013 12:16 15,4 C 15,7 C 78 % 1023,2 hPa 0,0 l/m 0 min 0 min 2,0 UV-I 362 W/m 0,0 km/h (0 Bft)
27.06.2013 12:18 15,4 C 15,7 C 77 % 1023,2 hPa 0,0 l/m 0 min 0 min 2,2 UV-I 388 W/m 10,3 km/h (2 Bft)
27.06.2013 12:20 15,4 C 16,2 C 76 % 1023,2 hPa 0,0 l/m 0 min 0 min 2,5 UV-I 443 W/m 0,0 km/h (0 Bft)
27.06.2013 12:22 15,5 C 16,8 C 76 % 1023,2 hPa 0,0 l/m 0 min 0 min 2,4 UV-I 436 W/m 7,7 km/h (2 Bft)
27.06.2013 12:24 15,6 C 16,8 C 77 % 1023,1 hPa 0,0 l/m 2 min 0 min 2,8 UV-I 468 W/m 10,3 km/h (2 Bft)
27.06.2013 12:26 15,7 C 17,3 C 77 % 1023,1 hPa 0,0 l/m 2 min 0 min 2,6 UV-I 471 W/m 12,9 km/h (3 Bft)
27.06.2013 12:28 15,8 C 17,3 C 77 % 1023,2 hPa 0,0 l/m 2 min 0 min 2,9 UV-I 524 W/m 10,3 km/h (2 Bft)
27.06.2013 12:30 15,8 C 17,9 C 75 % 1023,1 hPa 0,0 l/m 2 min 0 min 3,2 UV-I 524 W/m 5,1 km/h (1 Bft)
27.06.2013 12:32 16,0 C 17,9 C 75 % 1023,1 hPa 0,0 l/m 0 min 0 min 2,5 UV-I 432 W/m 7,7 km/h (2 Bft)
27.06.2013 12:34 15,9 C 17,9 C 74 % 1023,0 hPa 0,0 l/m 2 min 0 min 2,8 UV-I 506 W/m 7,7 km/h (2 Bft)
27.06.2013 12:36 15,8 C 17,9 C 74 % 1023,0 hPa 0,0 l/m 2 min 0 min 3,1 UV-I 548 W/m 10,3 km/h (2 Bft)
27.06.2013 12:38 15,8 C 17,9 C 75 % 1023,0 hPa 0,0 l/m 2 min 0 min 3,6 UV-I 554 W/m 5,1 km/h (1 Bft)
27.06.2013 12:40 16,0 C 18,4 C 76 % 1023,0 hPa 0,0 l/m 2 min 0 min 3,2 UV-I 613 W/m 0,0 km/h (0 Bft)
27.06.2013 12:42 16,2 C 18,4 C 74 % 1023,1 hPa 0,0 l/m 2 min 0 min 3,1 UV-I 536 W/m 10,3 km/h (2 Bft)
27.06.2013 12:44 16,2 C 18,4 C 74 % 1023,1 hPa 0,0 l/m 2 min 0 min 3,0 UV-I 504 W/m 10,3 km/h (2 Bft)
27.06.2013 12:46 16,2 C 18,4 C 76 % 1023,1 hPa 0,0 l/m 2 min 0 min 3,3 UV-I 547 W/m 2,6 km/h (1 Bft)
27.06.2013 12:48 16,3 C 18,4 C 75 % 1023,1 hPa 0,0 l/m 2 min 0 min 2,9 UV-I 496 W/m 2,6 km/h (1 Bft)
27.06.2013 12:50 16,3 C 17,9 C 76 % 1023,1 hPa 0,0 l/m 0 min 0 min 2,7 UV-I 436 W/m 7,7 km/h (2 Bft)
27.06.2013 12:52 16,3 C 19,0 C 76 % 1023,1 hPa 0,0 l/m 2 min 0 min 4,0 UV-I 810 W/m 5,1 km/h (1 Bft)
27.06.2013 12:54 16,4 C 19,0 C 77 % 1023,1 hPa 0,0 l/m 2 min 0 min 4,2 UV-I 810 W/m 7,7 km/h (2 Bft)
27.06.2013 12:56 16,5 C 19,6 C 74 % 1023,1 hPa 0,0 l/m 2 min 0 min 4,0 UV-I 847 W/m 18,0 km/h (3 Bft)
27.06.2013 12:58 16,6 C 20,1 C 75 % 1023,1 hPa 0,0 l/m 2 min 0 min 4,0 UV-I 844 W/m 10,3 km/h (2 Bft)
27.06.2013 13:00 16,8 C 20,7 C 76 % 1023,0 hPa 0,0 l/m 2 min 0 min 3,8 UV-I 879 W/m 10,3 km/h (2 Bft)
27.06.2013 13:02 17,1 C 21,2 C 75 % 1023,0 hPa 0,0 l/m 2 min 0 min 3,6 UV-I 870 W/m 20,6 km/h (4 Bft)
27.06.2013 13:06 17,7 C 22,9 C 73 % 1023,0 hPa 0,0 l/m 2 min 0 min 2,6 UV-I 752 W/m 12,9 km/h (3 Bft)
27.06.2013 13:08 17,9 C 21,8 C 70 % 1023,1 hPa 0,0 l/m 2 min 0 min 2,0 UV-I 752 W/m 7,7 km/h (2 Bft)
27.06.2013 13:10 17,7 C 20,1 C 66 % 1023,1 hPa 0,0 l/m 0 min 0 min 1,7 UV-I 352 W/m 5,1 km/h (1 Bft)
27.06.2013 13:12 17,3 C 19,0 C 69 % 1023,1 hPa 0,0 l/m 0 min 0 min 1,2 UV-I 278 W/m 12,9 km/h (3 Bft)
27.06.2013 13:14 16,9 C 17,9 C 69 % 1023,1 hPa 0,0 l/m 0 min 0 min 0,9 UV-I 229 W/m 12,9 km/h (3 Bft)
27.06.2013 13:16 16,7 C 17,3 C 70 % 1023,1 hPa 0,0 l/m 0 min 0 min 0,7 UV-I 193 W/m 10,3 km/h (2 Bft)
27.06.2013 13:18 16,5 C 16,8 C 70 % 1023,1 hPa 0,0 l/m 0 min 0 min 0,6 UV-I 176 W/m 7,7 km/h (2 Bft)
27.06.2013 13:20 16,3 C 16,2 C 71 % 1023,2 hPa 0,0 l/m 0 min 0 min 0,6 UV-I 171 W/m 12,9 km/h (3 Bft)
27.06.2013 13:22 16,1 C 15,7 C 71 % 1023,1 hPa 0,0 l/m 0 min 0 min 0,6 UV-I 178 W/m 5,1 km/h (1 Bft)
27.06.2013 13:24 16,0 C 15,7 C 72 % 1023,2 hPa 0,0 l/m 0 min 0 min 0,0 UV-I 160 W/m 2,6 km/h (1 Bft)
27.06.2013 13:26 15,9 C 15,7 C 72 % 1023,1 hPa 0,0 l/m 0 min 0 min 0,0 UV-I 118 W/m 10,3 km/h (2 Bft)
27.06.2013 13:28 15,8 C 15,1 C 72 % 1023,3 hPa 0,0 l/m 0 min 0 min 0,0 UV-I 67 W/m 15,4 km/h (3 Bft)
27.06.2013 13:30 15,6 C 14,6 C 72 % 1023,4 hPa 0,0 l/m 0 min 0 min 0,0 UV-I 51 W/m 12,9 km/h (3 Bft)
27.06.2013 13:32 15,4 C 13,4 C 72 % 1023,4 hPa 0,0 l/m 0 min 2 min 0,0 UV-I 44 W/m 12,9 km/h (3 Bft)
27.06.2013 13:34 15,4 C 12,3 C 73 % 1023,4 hPa 0,2 l/m 0 min 2 min 0,0 UV-I 44 W/m 10,3 km/h (2 Bft)
27.06.2013 13:36 15,3 C 11,8 C 74 % 1023,4 hPa 0,0 l/m 0 min 2 min 0,0 UV-I 47 W/m 15,4 km/h (3 Bft)
27.06.2013 13:38 15,2 C 11,8 C 76 % 1023,4 hPa 0,0 l/m 0 min 2 min 0,0 UV-I 56 W/m 12,9 km/h (3 Bft)
27.06.2013 13:40 15,1 C 11,8 C 77 % 1023,4 hPa 0,0 l/m 0 min 2 min 0,0 UV-I 72 W/m 12,9 km/h (3 Bft)
27.06.2013 13:42 15,1 C 11,8 C 77 % 1023,4 hPa 0,0 l/m 0 min 2 min 0,0 UV-I 86 W/m 7,7 km/h (2 Bft)
27.06.2013 13:44 14,9 C 11,8 C 78 % 1023,4 hPa 0,0 l/m 0 min 2 min 0,0 UV-I 100 W/m 10,3 km/h (2 Bft)
27.06.2013 13:46 14,9 C 11,8 C 78 % 1023,5 hPa 0,0 l/m 0 min 2 min 0,0 UV-I 125 W/m 7,7 km/h (2 Bft)
27.06.2013 13:48 14,8 C 11,8 C 78 % 1023,5 hPa 0,0 l/m 0 min 2 min 0,0 UV-I 148 W/m 0,0 km/h (0 Bft)
27.06.2013 13:50 14,7 C 12,3 C 80 % 1023,5 hPa 0,0 l/m 0 min 2 min 0,6 UV-I 171 W/m 5,1 km/h (1 Bft)
27.06.2013 13:52 14,7 C 11,8 C 80 % 1023,5 hPa 0,0 l/m 0 min 2 min 0,9 UV-I 216 W/m 15,4 km/h (3 Bft)
27.06.2013 13:54 14,6 C 12,3 C 80 % 1023,5 hPa 0,0 l/m 0 min 2 min 1,1 UV-I 251 W/m 7,7 km/h (2 Bft)
27.06.2013 13:56 14,3 C 12,9 C 81 % 1023,6 hPa 0,0 l/m 0 min 2 min 1,4 UV-I 295 W/m 2,6 km/h (1 Bft)
27.06.2013 13:58 14,3 C 12,9 C 83 % 1023,6 hPa 0,0 l/m 0 min 2 min 1,6 UV-I 322 W/m 5,1 km/h (1 Bft)
27.06.2013 14:00 14,1 C 12,9 C 82 % 1023,6 hPa 0,0 l/m 0 min 0 min 1,6 UV-I 316 W/m 10,3 km/h (2 Bft)
27.06.2013 14:02 14,0 C 12,9 C 80 % 1023,6 hPa 0,0 l/m 0 min 2 min 1,6 UV-I 311 W/m 10,3 km/h (2 Bft)
27.06.2013 14:06 14,0 C 13,4 C 81 % 1023,6 hPa 0,0 l/m 0 min 2 min 1,6 UV-I 315 W/m 10,3 km/h (2 Bft)
27.06.2013 14:08 14,1 C 13,4 C 82 % 1023,6 hPa 0,0 l/m 0 min 2 min 1,5 UV-I 308 W/m 10,3 km/h (2 Bft)
27.06.2013 14:10 14,3 C 14,0 C 83 % 1023,6 hPa 0,0 l/m 0 min 0 min 1,5 UV-I 301 W/m 2,6 km/h (1 Bft)
27.06.2013 14:12 14,3 C 13,4 C 81 % 1023,6 hPa 0,0 l/m 0 min 0 min 1,4 UV-I 288 W/m 5,1 km/h (1 Bft)
27.06.2013 14:14 14,3 C 13,4 C 80 % 1023,6 hPa 0,0 l/m 0 min 0 min 1,2 UV-I 262 W/m 12,9 km/h (3 Bft)
27.06.2013 14:16 14,3 C 14,0 C 79 % 1023,6 hPa 0,0 l/m 0 min 0 min 1,0 UV-I 246 W/m 0,0 km/h (0 Bft)
27.06.2013 14:18 14,4 C 14,0 C 80 % 1023,6 hPa 0,0 l/m 0 min 0 min 0,9 UV-I 230 W/m 5,1 km/h (1 Bft)
27.06.2013 14:20 14,4 C 14,0 C 80 % 1023,6 hPa 0,0 l/m 0 min 0 min 0,9 UV-I 213 W/m 5,1 km/h (1 Bft)
27.06.2013 14:22 14,3 C 14,0 C 78 % 1023,6 hPa 0,0 l/m 0 min 0 min 0,8 UV-I 209 W/m 12,9 km/h (3 Bft)
27.06.2013 14:24 14,2 C 14,6 C 79 % 1023,6 hPa 0,0 l/m 0 min 0 min 0,8 UV-I 209 W/m 0,0 km/h (0 Bft)
27.06.2013 14:26 14,2 C 14,6 C 79 % 1023,6 hPa 0,0 l/m 0 min 0 min 0,8 UV-I 206 W/m 0,0 km/h (0 Bft)
27.06.2013 14:28 14,2 C 14,6 C 79 % 1023,6 hPa 0,0 l/m 0 min 0 min 0,7 UV-I 209 W/m 2,6 km/h (1 Bft)
27.06.2013 14:30 14,2 C 14,6 C 78 % 1023,7 hPa 0,0 l/m 0 min 0 min 0,8 UV-I 213 W/m 0,0 km/h (0 Bft)
27.06.2013 14:32 14,2 C 14,6 C 78 % 1023,7 hPa 0,0 l/m 0 min 0 min 0,8 UV-I 221 W/m 7,7 km/h (2 Bft)
27.06.2013 14:34 14,1 C 14,6 C 79 % 1023,7 hPa 0,0 l/m 0 min 0 min 0,9 UV-I 236 W/m 5,1 km/h (1 Bft)
27.06.2013 14:36 14,1 C 14,6 C 79 % 1023,6 hPa 0,0 l/m 0 min 0 min 1,0 UV-I 248 W/m 10,3 km/h (2 Bft)
27.06.2013 14:38 14,2 C 14,6 C 81 % 1023,6 hPa 0,0 l/m 0 min 0 min 1,1 UV-I 264 W/m 5,1 km/h (1 Bft)
27.06.2013 14:40 14,2 C 15,1 C 81 % 1023,5 hPa 0,0 l/m 0 min 0 min 1,3 UV-I 281 W/m 7,7 km/h (2 Bft)
27.06.2013 14:42 14,3 C 15,1 C 81 % 1023,5 hPa 0,0 l/m 0 min 0 min 1,6 UV-I 322 W/m 5,1 km/h (1 Bft)
27.06.2013 14:44 14,3 C 15,7 C 82 % 1023,5 hPa 0,0 l/m 0 min 0 min 2,1 UV-I 420 W/m 2,6 km/h (1 Bft)
27.06.2013 14:46 14,3 C 15,7 C 79 % 1023,3 hPa 0,0 l/m 2 min 0 min 3,2 UV-I 512 W/m 2,6 km/h (1 Bft)
27.06.2013 14:48 14,6 C 16,2 C 79 % 1023,3 hPa 0,0 l/m 2 min 0 min 3,8 UV-I 773 W/m 0,0 km/h (0 Bft)
27.06.2013 14:50 14,9 C 16,8 C 81 % 1023,3 hPa 0,0 l/m 2 min 0 min 3,1 UV-I 666 W/m 0,0 km/h (0 Bft)
27.06.2013 14:52 15,4 C 17,3 C 81 % 1023,3 hPa 0,0 l/m 2 min 0 min 2,8 UV-I 621 W/m 0,0 km/h (0 Bft)
27.06.2013 14:54 15,5 C 16,8 C 78 % 1023,2 hPa 0,0 l/m 2 min 0 min 2,2 UV-I 497 W/m 2,6 km/h (1 Bft)
27.06.2013 14:56 15,6 C 16,8 C 77 % 1023,2 hPa 0,0 l/m 0 min 0 min 1,3 UV-I 362 W/m 10,3 km/h (2 Bft)
27.06.2013 14:58 15,6 C 16,2 C 77 % 1023,3 hPa 0,0 l/m 0 min 0 min 0,7 UV-I 204 W/m 12,9 km/h (3 Bft)
27.06.2013 15:00 15,4 C 15,7 C 76 % 1023,3 hPa 0,0 l/m 0 min 0 min 0,9 UV-I 227 W/m 12,9 km/h (3 Bft)
27.06.2013 15:02 15,1 C 15,1 C 76 % 1023,2 hPa 0,0 l/m 0 min 0 min 1,2 UV-I 287 W/m 18,0 km/h (3 Bft)
27.06.2013 15:05 14,8 C 15,1 C 77 % 1023,2 hPa 0,0 l/m 0 min 0 min 1,5 UV-I 306 W/m 15,4 km/h (3 Bft)
27.06.2013 15:06 14,8 C 15,1 C 76 % 1023,2 hPa 0,0 l/m 0 min 0 min 1,8 UV-I 329 W/m 12,9 km/h (3 Bft)
27.06.2013 15:08 14,7 C 15,1 C 76 % 1023,2 hPa 0,0 l/m 2 min 0 min 3,1 UV-I 689 W/m 12,9 km/h (3 Bft)
27.06.2013 15:10 14,7 C 15,7 C 76 % 1023,2 hPa 0,0 l/m 2 min 0 min 3,3 UV-I 689 W/m 12,9 km/h (3 Bft)
27.06.2013 15:12 14,9 C 16,2 C 76 % 1023,1 hPa 0,0 l/m 2 min 0 min 3,8 UV-I 786 W/m 12,9 km/h (3 Bft)
27.06.2013 15:14 15,2 C 16,8 C 77 % 1023,0 hPa 0,0 l/m 2 min 0 min 3,4 UV-I 865 W/m 10,3 km/h (2 Bft)
27.06.2013 15:16 15,3 C 16,8 C 75 % 1023,0 hPa 0,0 l/m 2 min 0 min 3,7 UV-I 768 W/m 10,3 km/h (2 Bft)
27.06.2013 15:18 15,7 C 17,3 C 77 % 1023,0 hPa 0,0 l/m 2 min 0 min 2,7 UV-I 768 W/m 10,3 km/h (2 Bft)
27.06.2013 15:20 16,1 C 17,3 C 75 % 1023,0 hPa 0,0 l/m 2 min 0 min 2,4 UV-I 840 W/m 0,0 km/h (0 Bft)
27.06.2013 15:22 16,1 C 16,8 C 72 % 1023,0 hPa 0,0 l/m 2 min 0 min 2,0 UV-I 840 W/m 12,9 km/h (3 Bft)
27.06.2013 15:24 15,8 C 16,8 C 73 % 1023,0 hPa 0,0 l/m 0 min 0 min 2,1 UV-I 366 W/m 12,9 km/h (3 Bft)
27.06.2013 15:26 15,7 C 16,8 C 74 % 1023,0 hPa 0,0 l/m 2 min 0 min 2,4 UV-I 606 W/m 12,9 km/h (3 Bft)
27.06.2013 15:28 15,9 C 17,3 C 76 % 1023,0 hPa 0,0 l/m 0 min 0 min 2,4 UV-I 418 W/m 7,7 km/h (2 Bft)
27.06.2013 15:30 16,2 C 17,3 C 76 % 1023,0 hPa 0,0 l/m 2 min 0 min 2,5 UV-I 526 W/m 10,3 km/h (2 Bft)
27.06.2013 15:32 16,3 C 17,3 C 76 % 1022,9 hPa 0,0 l/m 2 min 0 min 2,2 UV-I 462 W/m 10,3 km/h (2 Bft)
27.06.2013 15:34 16,1 C 16,8 C 72 % 1022,9 hPa 0,0 l/m 0 min 0 min 2,0 UV-I 381 W/m 12,9 km/h (3 Bft)
27.06.2013 15:36 16,1 C 17,3 C 74 % 1023,0 hPa 0,0 l/m 0 min 0 min 2,1 UV-I 390 W/m 7,7 km/h (2 Bft)
27.06.2013 15:38 16,1 C 16,8 C 74 % 1023,0 hPa 0,0 l/m 0 min 0 min 1,0 UV-I 246 W/m 2,6 km/h (1 Bft)
27.06.2013 15:40 16,1 C 16,2 C 73 % 1023,0 hPa 0,0 l/m 0 min 0 min 0,0 UV-I 160 W/m 0,0 km/h (0 Bft)
27.06.2013 15:42 15,9 C 15,7 C 72 % 1022,9 hPa 0,0 l/m 0 min 0 min 0,0 UV-I 88 W/m 12,9 km/h (3 Bft)
27.06.2013 15:44 15,9 C 15,1 C 72 % 1022,9 hPa 0,0 l/m 0 min 0 min 0,0 UV-I 67 W/m 12,9 km/h (3 Bft)
27.06.2013 15:46 15,8 C 15,1 C 73 % 1022,8 hPa 0,0 l/m 0 min 0 min 0,0 UV-I 58 W/m 7,7 km/h (2 Bft)
27.06.2013 15:48 15,7 C 14,6 C 72 % 1022,9 hPa 0,0 l/m 0 min 0 min 0,0 UV-I 44 W/m 15,4 km/h (3 Bft)
27.06.2013 15:50 15,6 C 14,0 C 72 % 1022,9 hPa 0,0 l/m 0 min 2 min 0,0 UV-I 40 W/m 15,4 km/h (3 Bft)
27.06.2013 15:52 15,5 C 13,4 C 74 % 1022,9 hPa 0,0 l/m 0 min 2 min 0,0 UV-I 42 W/m 15,4 km/h (3 Bft)
27.06.2013 15:54 15,3 C 12,9 C 75 % 1023,0 hPa 0,0 l/m 0 min 2 min 0,0 UV-I 53 W/m 10,3 km/h (2 Bft)
27.06.2013 15:56 15,2 C 12,9 C 77 % 1022,9 hPa 0,0 l/m 0 min 2 min 0,0 UV-I 56 W/m 10,3 km/h (2 Bft)
27.06.2013 15:58 15,2 C 12,3 C 77 % 1022,9 hPa 0,0 l/m 0 min 2 min 0,0 UV-I 74 W/m 18,0 km/h (3 Bft)
27.06.2013 16:00 15,1 C 12,3 C 78 % 1023,0 hPa 0,0 l/m 0 min 2 min 0,0 UV-I 105 W/m 7,7 km/h (2 Bft)
27.06.2013 16:02 15,1 C 12,9 C 78 % 1022,9 hPa 0,0 l/m 0 min 0 min 0,0 UV-I 130 W/m 0,0 km/h (0 Bft)
27.06.2013 16:06 15,0 C 12,9 C 79 % 1022,9 hPa 0,0 l/m 0 min 2 min 0,0 UV-I 192 W/m 10,3 km/h (2 Bft)
27.06.2013 16:08 14,9 C 12,9 C 80 % 1022,9 hPa 0,0 l/m 0 min 2 min 0,5 UV-I 202 W/m 2,6 km/h (1 Bft)
27.06.2013 16:10 14,9 C 12,9 C 81 % 1022,9 hPa 0,0 l/m 0 min 2 min 0,5 UV-I 216 W/m 7,7 km/h (2 Bft)
27.06.2013 16:12 14,9 C 12,9 C 81 % 1022,9 hPa 0,0 l/m 0 min 2 min 0,6 UV-I 241 W/m 0,0 km/h (0 Bft)
27.06.2013 16:14 14,9 C 13,4 C 81 % 1022,9 hPa 0,0 l/m 0 min 0 min 0,7 UV-I 253 W/m 0,0 km/h (0 Bft)
27.06.2013 16:16 14,9 C 13,4 C 81 % 1022,8 hPa 0,0 l/m 0 min 0 min 0,7 UV-I 253 W/m 5,1 km/h (1 Bft)
27.06.2013 16:18 14,9 C 13,4 C 81 % 1022,8 hPa 0,0 l/m 0 min 0 min 0,8 UV-I 264 W/m 0,0 km/h (0 Bft)
27.06.2013 16:20 14,8 C 13,4 C 81 % 1022,9 hPa 0,0 l/m 0 min 0 min 0,9 UV-I 279 W/m 10,3 km/h (2 Bft)
27.06.2013 16:22 14,8 C 13,4 C 80 % 1022,9 hPa 0,0 l/m 0 min 0 min 0,9 UV-I 281 W/m 2,6 km/h (1 Bft)
27.06.2013 16:24 14,8 C 13,4 C 79 % 1022,9 hPa 0,0 l/m 0 min 0 min 0,8 UV-I 262 W/m 2,6 km/h (1 Bft)
27.06.2013 16:26 14,8 C 14,0 C 79 % 1022,7 hPa 0,0 l/m 0 min 0 min 0,6 UV-I 234 W/m 0,0 km/h (0 Bft)
27.06.2013 16:28 14,8 C 14,0 C 79 % 1022,8 hPa 0,0 l/m 0 min 0 min 0,0 UV-I 181 W/m 7,7 km/h (2 Bft)
27.06.2013 16:30 14,8 C 14,0 C 79 % 1022,9 hPa 0,0 l/m 0 min 0 min 0,0 UV-I 125 W/m 2,6 km/h (1 Bft)
27.06.2013 16:32 14,8 C 14,0 C 79 % 1022,8 hPa 0,0 l/m 0 min 0 min 0,0 UV-I 127 W/m 0,0 km/h (0 Bft)
27.06.2013 16:34 14,8 C 14,0 C 79 % 1022,9 hPa 0,0 l/m 0 min 0 min 0,0 UV-I 181 W/m 0,0 km/h (0 Bft)
27.06.2013 16:36 14,8 C 14,6 C 80 % 1022,9 hPa 0,0 l/m 0 min 0 min 0,5 UV-I 230 W/m 5,1 km/h (1 Bft)
27.06.2013 16:38 14,8 C 14,6 C 80 % 1022,9 hPa 0,0 l/m 0 min 0 min 0,9 UV-I 294 W/m 0,0 km/h (0 Bft)
27.06.2013 16:40 14,9 C 15,1 C 81 % 1022,8 hPa 0,0 l/m 0 min 0 min 1,2 UV-I 350 W/m 0,0 km/h (0 Bft)
27.06.2013 16:42 14,9 C 15,1 C 80 % 1022,8 hPa 0,0 l/m 0 min 0 min 1,1 UV-I 334 W/m 7,7 km/h (2 Bft)
27.06.2013 16:44 14,8 C 15,1 C 80 % 1022,7 hPa 0,0 l/m 0 min 0 min 1,0 UV-I 338 W/m 0,0 km/h (0 Bft)
27.06.2013 16:46 14,9 C 15,7 C 82 % 1022,8 hPa 0,0 l/m 0 min 0 min 0,7 UV-I 278 W/m 5,1 km/h (1 Bft)
27.06.2013 16:48 14,8 C 15,7 C 83 % 1022,9 hPa 0,0 l/m 0 min 0 min 0,7 UV-I 257 W/m 0,0 km/h (0 Bft)
27.06.2013 16:50 14,8 C 15,7 C 84 % 1022,8 hPa 0,0 l/m 0 min 0 min 1,0 UV-I 330 W/m 5,1 km/h (1 Bft)
27.06.2013 16:52 15,0 C 16,2 C 84 % 1022,8 hPa 0,0 l/m 0 min 0 min 1,9 UV-I 330 W/m 0,0 km/h (0 Bft)
27.06.2013 16:54 15,4 C 16,8 C 85 % 1022,8 hPa 0,0 l/m 2 min 0 min 1,7 UV-I 454 W/m 7,7 km/h (2 Bft)
27.06.2013 16:56 15,7 C 16,8 C 83 % 1022,7 hPa 0,0 l/m 2 min 0 min 1,7 UV-I 454 W/m 7,7 km/h (2 Bft)
27.06.2013 16:58 15,7 C 16,8 C 81 % 1022,7 hPa 0,0 l/m 2 min 0 min 1,3 UV-I 401 W/m 7,7 km/h (2 Bft)
27.06.2013 17:00 15,8 C 16,8 C 81 % 1022,5 hPa 0,0 l/m 0 min 0 min 0,9 UV-I 257 W/m 10,3 km/h (2 Bft)
27.06.2013 17:02 15,7 C 16,2 C 82 % 1022,5 hPa 0,0 l/m 0 min 0 min 0,5 UV-I 169 W/m 7,7 km/h (2 Bft)
27.06.2013 17:06 15,5 C 15,1 C 82 % 1022,5 hPa 0,0 l/m 0 min 0 min 0,0 UV-I 111 W/m 7,7 km/h (2 Bft)
27.06.2013 17:10 15,3 C 15,1 C 82 % 1022,4 hPa 0,0 l/m 0 min 0 min 0,0 UV-I 95 W/m 7,7 km/h (2 Bft)
27.06.2013 17:14 15,1 C 14,6 C 79 % 1022,5 hPa 0,0 l/m 0 min 0 min 0,0 UV-I 81 W/m 12,9 km/h (3 Bft)
27.06.2013 17:15 15,1 C 14,6 C 79 % 1022,6 hPa 0,0 l/m 0 min 0 min 0,0 UV-I 77 W/m 0,0 km/h (0 Bft)
27.06.2013 17:16 15,1 C 14,6 C 79 % 1022,6 hPa 0,0 l/m 0 min 0 min 0,0 UV-I 76 W/m 10,3 km/h (2 Bft)
27.06.2013 17:17 15,0 C 14,6 C 79 % 1022,4 hPa 0,0 l/m 0 min 0 min 0,0 UV-I 72 W/m 15,4 km/h (3 Bft)
27.06.2013 17:18 15,0 C 14,6 C 78 % 1022,4 hPa 0,0 l/m 0 min 0 min 0,0 UV-I 72 W/m 10,3 km/h (2 Bft)
27.06.2013 17:19 14,9 C 14,6 C 77 % 1022,5 hPa 0,0 l/m 0 min 0 min 0,0 UV-I 76 W/m 10,3 km/h (2 Bft)
27.06.2013 17:20 14,9 C 14,6 C 77 % 1022,4 hPa 0,0 l/m 0 min 0 min 0,0 UV-I 77 W/m 5,1 km/h (1 Bft)
27.06.2013 17:21 14,9 C 14,6 C 77 % 1022,5 hPa 0,0 l/m 0 min 0 min 0,0 UV-I 81 W/m 7,7 km/h (2 Bft)
27.06.2013 17:22 14,9 C 14,6 C 77 % 1022,5 hPa 0,0 l/m 0 min 0 min 0,0 UV-I 83 W/m 2,6 km/h (1 Bft)
27.06.2013 17:23 14,9 C 14,6 C 77 % 1022,5 hPa 0,0 l/m 0 min 0 min 0,0 UV-I 83 W/m 2,6 km/h (1 Bft)
27.06.2013 17:24 14,9 C 14,6 C 77 % 1022,5 hPa 0,0 l/m 0 min 0 min 0,0 UV-I 81 W/m 0,0 km/h (0 Bft)
27.06.2013 17:25 14,9 C 14,6 C 76 % 1022,5 hPa 0,0 l/m 0 min 0 min 0,0 UV-I 77 W/m 5,1 km/h (1 Bft)
27.06.2013 17:26 14,9 C 14,6 C 75 % 1022,5 hPa 0,0 l/m 0 min 0 min 0,0 UV-I 74 W/m 7,7 km/h (2 Bft)
27.06.2013 17:27 14,9 C 14,6 C 76 % 1022,5 hPa 0,0 l/m 0 min 0 min 0,0 UV-I 70 W/m 0,0 km/h (0 Bft)
27.06.2013 17:28 15,0 C 14,6 C 76 % 1022,5 hPa 0,0 l/m 0 min 0 min 0,0 UV-I 69 W/m 2,6 km/h (1 Bft)
27.06.2013 17:29 14,9 C 14,0 C 76 % 1022,5 hPa 0,0 l/m 0 min 0 min 0,0 UV-I 69 W/m 0,0 km/h (0 Bft)
27.06.2013 17:38 15,0 C 14,0 C 76 % 1022,4 hPa 0,0 l/m 0 min 0 min 0,0 UV-I 81 W/m 7,7 km/h (2 Bft)
27.06.2013 17:40 14,9 C 14,0 C 76 % 1022,4 hPa 0,0 l/m 0 min 0 min 0,0 UV-I 72 W/m 5,1 km/h (1 Bft)
27.06.2013 17:42 15,0 C 14,0 C 76 % 1022,5 hPa 0,0 l/m 0 min 0 min 0,0 UV-I 69 W/m 5,1 km/h (1 Bft)
27.06.2013 17:44 14,9 C 14,0 C 75 % 1022,6 hPa 0,0 l/m 0 min 0 min 0,0 UV-I 69 W/m 10,3 km/h (2 Bft)
27.06.2013 17:48 14,9 C 14,0 C 74 % 1022,6 hPa 0,0 l/m 0 min 0 min 0,0 UV-I 88 W/m 12,9 km/h (3 Bft)
27.06.2013 17:50 14,9 C 14,0 C 74 % 1022,5 hPa 0,0 l/m 0 min 0 min 0,0 UV-I 100 W/m 0,0 km/h (0 Bft)
27.06.2013 17:52 14,9 C 14,0 C 73 % 1022,5 hPa 0,0 l/m 0 min 0 min 0,0 UV-I 123 W/m 0,0 km/h (0 Bft)
27.06.2013 17:54 15,0 C 14,6 C 74 % 1022,4 hPa 0,0 l/m 0 min 0 min 0,0 UV-I 142 W/m 7,7 km/h (2 Bft)
27.06.2013 17:56 15,0 C 14,6 C 73 % 1022,4 hPa 0,0 l/m 0 min 0 min 0,0 UV-I 156 W/m 10,3 km/h (2 Bft)
27.06.2013 17:58 15,0 C 14,6 C 73 % 1022,4 hPa 0,0 l/m 0 min 0 min 0,0 UV-I 167 W/m 10,3 km/h (2 Bft)
27.06.2013 18:00 15,1 C 14,6 C 73 % 1022,4 hPa 0,0 l/m 0 min 0 min 0,0 UV-I 162 W/m 0,0 km/h (0 Bft)
27.06.2013 18:02 15,1 C 14,6 C 74 % 1022,3 hPa 0,0 l/m 0 min 0 min 0,0 UV-I 156 W/m 0,0 km/h (0 Bft)
27.06.2013 18:05 15,1 C 15,1 C 74 % 1022,1 hPa 0,0 l/m 0 min 0 min 0,0 UV-I 162 W/m 2,6 km/h (1 Bft)
27.06.2013 18:06 15,2 C 15,1 C 74 % 1022,1 hPa 0,0 l/m 0 min 0 min 0,0 UV-I 167 W/m 7,7 km/h (2 Bft)
27.06.2013 18:08 15,2 C 15,1 C 74 % 1022,1 hPa 0,0 l/m 0 min 0 min 0,0 UV-I 172 W/m 5,1 km/h (1 Bft)
27.06.2013 18:10 15,2 C 15,1 C 73 % 1022,1 hPa 0,0 l/m 0 min 0 min 0,0 UV-I 183 W/m 0,0 km/h (0 Bft)
27.06.2013 18:12 15,2 C 15,1 C 73 % 1022,1 hPa 0,0 l/m 0 min 0 min 0,0 UV-I 176 W/m 10,3 km/h (2 Bft)
27.06.2013 18:16 15,3 C 15,1 C 73 % 1022,1 hPa 0,0 l/m 0 min 0 min 0,0 UV-I 179 W/m 0,0 km/h (0 Bft)
27.06.2013 18:18 15,3 C 15,1 C 73 % 1022,0 hPa 0,0 l/m 0 min 0 min 0,0 UV-I 179 W/m 7,7 km/h (2 Bft)
27.06.2013 18:20 15,4 C 15,1 C 73 % 1022,1 hPa 0,0 l/m 0 min 0 min 0,0 UV-I 174 W/m 5,1 km/h (1 Bft)
27.06.2013 18:22 15,4 C 15,1 C 71 % 1022,0 hPa 0,0 l/m 0 min 0 min 0,0 UV-I 176 W/m 12,9 km/h (3 Bft)
27.06.2013 18:24 15,4 C 15,1 C 70 % 1022,1 hPa 0,0 l/m 0 min 0 min 0,0 UV-I 174 W/m 7,7 km/h (2 Bft)
27.06.2013 18:26 15,4 C 15,1 C 70 % 1022,1 hPa 0,0 l/m 0 min 0 min 0,0 UV-I 162 W/m 7,7 km/h (2 Bft)
27.06.2013 18:28 15,4 C 15,1 C 70 % 1022,0 hPa 0,0 l/m 0 min 0 min 0,0 UV-I 160 W/m 5,1 km/h (1 Bft)
27.06.2013 18:30 15,5 C 15,1 C 71 % 1022,0 hPa 0,0 l/m 0 min 0 min 0,0 UV-I 156 W/m 0,0 km/h (0 Bft)
27.06.2013 18:32 15,5 C 15,1 C 71 % 1022,0 hPa 0,0 l/m 0 min 0 min 0,0 UV-I 146 W/m 2,6 km/h (1 Bft)
27.06.2013 18:34 15,5 C 15,1 C 71 % 1022,0 hPa 0,0 l/m 0 min 0 min 0,0 UV-I 141 W/m 7,7 km/h (2 Bft)
27.06.2013 18:36 15,6 C 15,1 C 71 % 1022,1 hPa 0,0 l/m 0 min 0 min 0,0 UV-I 132 W/m 7,7 km/h (2 Bft)
27.06.2013 18:38 15,6 C 14,6 C 72 % 1022,1 hPa 0,0 l/m 0 min 0 min 0,0 UV-I 121 W/m 5,1 km/h (1 Bft)
27.06.2013 18:40 15,6 C 14,6 C 71 % 1022,1 hPa 0,0 l/m 0 min 0 min 0,0 UV-I 114 W/m 5,1 km/h (1 Bft)
27.06.2013 18:42 15,6 C 14,6 C 72 % 1022,1 hPa 0,0 l/m 0 min 0 min 0,0 UV-I 105 W/m 2,6 km/h (1 Bft)
27.06.2013 18:44 15,6 C 14,6 C 72 % 1022,1 hPa 0,0 l/m 0 min 0 min 0,0 UV-I 91 W/m 2,6 km/h (1 Bft)
27.06.2013 18:46 15,6 C 14,6 C 71 % 1022,1 hPa 0,0 l/m 0 min 0 min 0,0 UV-I 79 W/m 5,1 km/h (1 Bft)
27.06.2013 18:48 15,6 C 14,6 C 71 % 1022,0 hPa 0,0 l/m 0 min 0 min 0,0 UV-I 76 W/m 15,4 km/h (3 Bft)
27.06.2013 18:52 15,5 C 14,6 C 71 % 1022,1 hPa 0,0 l/m 0 min 0 min 0,0 UV-I 113 W/m 7,7 km/h (2 Bft)
27.06.2013 18:54 15,5 C 14,6 C 71 % 1022,1 hPa 0,0 l/m 0 min 0 min 0,0 UV-I 118 W/m 10,3 km/h (2 Bft)
27.06.2013 18:56 15,4 C 14,0 C 71 % 1022,0 hPa 0,0 l/m 0 min 0 min 0,0 UV-I 111 W/m 12,9 km/h (3 Bft)
27.06.2013 18:58 15,4 C 14,0 C 71 % 1022,0 hPa 0,0 l/m 0 min 0 min 0,0 UV-I 105 W/m 15,4 km/h (3 Bft)
27.06.2013 19:00 15,4 C 14,0 C 71 % 1022,1 hPa 0,0 l/m 0 min 0 min 0,0 UV-I 105 W/m 0,0 km/h (0 Bft)
27.06.2013 19:02 15,4 C 14,6 C 72 % 1022,1 hPa 0,0 l/m 0 min 0 min 0,0 UV-I 105 W/m 12,9 km/h (3 Bft)
27.06.2013 19:06 15,3 C 14,0 C 72 % 1022,1 hPa 0,0 l/m 0 min 0 min 0,0 UV-I 93 W/m 12,9 km/h (3 Bft)
27.06.2013 19:08 15,3 C 14,0 C 72 % 1022,1 hPa 0,0 l/m 0 min 0 min 0,0 UV-I 83 W/m 10,3 km/h (2 Bft)
27.06.2013 19:10 15,3 C 14,0 C 72 % 1022,0 hPa 0,0 l/m 0 min 0 min 0,0 UV-I 77 W/m 5,1 km/h (1 Bft)
27.06.2013 19:12 15,3 C 14,0 C 72 % 1022,0 hPa 0,0 l/m 0 min 0 min 0,0 UV-I 79 W/m 2,6 km/h (1 Bft)
27.06.2013 19:14 15,2 C 14,0 C 72 % 1022,1 hPa 0,0 l/m 0 min 0 min 0,0 UV-I 83 W/m 12,9 km/h (3 Bft)
27.06.2013 19:16 15,2 C 14,0 C 71 % 1022,0 hPa 0,0 l/m 0 min 0 min 0,0 UV-I 84 W/m 7,7 km/h (2 Bft)
27.06.2013 19:18 15,2 C 14,0 C 71 % 1022,1 hPa 0,0 l/m 0 min 0 min 0,0 UV-I 86 W/m 2,6 km/h (1 Bft)
27.06.2013 19:20 15,2 C 14,0 C 71 % 1022,0 hPa 0,0 l/m 0 min 0 min 0,0 UV-I 86 W/m 7,7 km/h (2 Bft)
27.06.2013 19:22 15,1 C 14,0 C 71 % 1022,1 hPa 0,0 l/m 0 min 0 min 0,0 UV-I 90 W/m 7,7 km/h (2 Bft)
27.06.2013 19:24 15,1 C 14,0 C 71 % 1022,1 hPa 0,0 l/m 0 min 0 min 0,0 UV-I 95 W/m 7,7 km/h (2 Bft)
27.06.2013 19:26 15,1 C 14,0 C 71 % 1022,1 hPa 0,0 l/m 0 min 0 min 0,0 UV-I 98 W/m 10,3 km/h (2 Bft)
27.06.2013 19:28 15,1 C 14,0 C 71 % 1022,0 hPa 0,0 l/m 0 min 0 min 0,0 UV-I 93 W/m 0,0 km/h (0 Bft)
27.06.2013 19:30 15,1 C 14,0 C 71 % 1022,0 hPa 0,0 l/m 0 min 0 min 0,0 UV-I 81 W/m 7,7 km/h (2 Bft)
27.06.2013 19:32 15,0 C 13,4 C 72 % 1022,0 hPa 0,0 l/m 0 min 0 min 0,0 UV-I 72 W/m 5,1 km/h (1 Bft)
27.06.2013 19:34 15,0 C 13,4 C 72 % 1022,0 hPa 0,0 l/m 0 min 0 min 0,0 UV-I 74 W/m 7,7 km/h (2 Bft)
27.06.2013 19:38 14,9 C 14,0 C 72 % 1022,0 hPa 0,0 l/m 0 min 0 min 0,0 UV-I 83 W/m 7,7 km/h (2 Bft)
27.06.2013 19:42 14,9 C 14,0 C 73 % 1022,0 hPa 0,0 l/m 0 min 0 min 0,0 UV-I 91 W/m 5,1 km/h (1 Bft)
27.06.2013 19:44 14,9 C 14,0 C 73 % 1021,9 hPa 0,0 l/m 0 min 0 min 0,0 UV-I 95 W/m 0,0 km/h (0 Bft)
27.06.2013 19:46 14,9 C 14,0 C 73 % 1022,0 hPa 0,0 l/m 0 min 0 min 0,0 UV-I 90 W/m 2,6 km/h (1 Bft)
27.06.2013 19:48 14,8 C 14,0 C 73 % 1021,9 hPa 0,0 l/m 0 min 0 min 0,0 UV-I 83 W/m 7,7 km/h (2 Bft)
27.06.2013 19:50 14,8 C 14,0 C 73 % 1021,9 hPa 0,0 l/m 0 min 0 min 0,0 UV-I 81 W/m 7,7 km/h (2 Bft)
27.06.2013 19:52 14,8 C 13,4 C 73 % 1021,9 hPa 0,0 l/m 0 min 0 min 0,0 UV-I 60 W/m 15,4 km/h (3 Bft)
27.06.2013 19:54 14,8 C 13,4 C 73 % 1021,9 hPa 0,0 l/m 0 min 0 min 0,0 UV-I 49 W/m 0,0 km/h (0 Bft)
27.06.2013 19:56 14,8 C 13,4 C 73 % 1022,0 hPa 0,0 l/m 0 min 0 min 0,0 UV-I 49 W/m 12,9 km/h (3 Bft)
27.06.2013 19:58 14,7 C 13,4 C 73 % 1021,9 hPa 0,0 l/m 0 min 0 min 0,0 UV-I 51 W/m 2,6 km/h (1 Bft)
27.06.2013 20:00 14,7 C 13,4 C 73 % 1021,9 hPa 0,0 l/m 0 min 0 min 0,0 UV-I 58 W/m 12,9 km/h (3 Bft)
27.06.2013 20:02 14,7 C 13,4 C 73 % 1021,9 hPa 0,0 l/m 0 min 0 min 0,0 UV-I 56 W/m 7,7 km/h (2 Bft)
27.06.2013 20:05 14,7 C 13,4 C 73 % 1021,9 hPa 0,0 l/m 0 min 0 min 0,0 UV-I 60 W/m 7,7 km/h (2 Bft)
27.06.2013 20:06 14,6 C 13,4 C 73 % 1021,9 hPa 0,0 l/m 0 min 0 min 0,0 UV-I 62 W/m 0,0 km/h (0 Bft)
27.06.2013 20:08 14,6 C 13,4 C 74 % 1021,9 hPa 0,0 l/m 0 min 0 min 0,0 UV-I 62 W/m 5,1 km/h (1 Bft)
27.06.2013 20:10 14,6 C 13,4 C 73 % 1021,9 hPa 0,0 l/m 0 min 0 min 0,0 UV-I 62 W/m 7,7 km/h (2 Bft)
27.06.2013 20:12 14,6 C 13,4 C 73 % 1021,9 hPa 0,0 l/m 0 min 0 min 0,0 UV-I 65 W/m 7,7 km/h (2 Bft)
27.06.2013 20:14 14,6 C 13,4 C 74 % 1021,9 hPa 0,0 l/m 0 min 0 min 0,0 UV-I 69 W/m 7,7 km/h (2 Bft)
27.06.2013 20:16 14,5 C 13,4 C 74 % 1021,8 hPa 0,0 l/m 0 min 0 min 0,0 UV-I 69 W/m 0,0 km/h (0 Bft)
27.06.2013 20:18 14,5 C 13,4 C 74 % 1021,8 hPa 0,0 l/m 0 min 0 min 0,0 UV-I 67 W/m 0,0 km/h (0 Bft)
27.06.2013 20:20 14,5 C 13,4 C 74 % 1021,9 hPa 0,0 l/m 0 min 0 min 0,0 UV-I 63 W/m 0,0 km/h (0 Bft)
27.06.2013 20:22 14,4 C 13,4 C 74 % 1021,8 hPa 0,0 l/m 0 min 0 min 0,0 UV-I 60 W/m 0,0 km/h (0 Bft)
27.06.2013 20:24 14,4 C 13,4 C 74 % 1021,8 hPa 0,0 l/m 0 min 0 min 0,0 UV-I 56 W/m 0,0 km/h (0 Bft)
27.06.2013 20:26 14,4 C 13,4 C 74 % 1021,9 hPa 0,0 l/m 0 min 0 min 0,0 UV-I 54 W/m 0,0 km/h (0 Bft)
27.06.2013 20:28 14,4 C 13,4 C 75 % 1021,9 hPa 0,0 l/m 0 min 0 min 0,0 UV-I 53 W/m 0,0 km/h (0 Bft)
27.06.2013 20:30 14,4 C 13,4 C 74 % 1021,9 hPa 0,0 l/m 0 min 0 min 0,0 UV-I 51 W/m 0,0 km/h (0 Bft)
27.06.2013 20:32 14,4 C 13,4 C 74 % 1021,9 hPa 0,0 l/m 0 min 0 min 0,0 UV-I 49 W/m 0,0 km/h (0 Bft)
27.06.2013 20:34 14,4 C 12,9 C 75 % 1021,9 hPa 0,0 l/m 0 min 0 min 0,0 UV-I 47 W/m 0,0 km/h (0 Bft)
27.06.2013 20:36 14,4 C 12,9 C 75 % 1021,8 hPa 0,0 l/m 0 min 0 min 0,0 UV-I 47 W/m 0,0 km/h (0 Bft)
27.06.2013 20:38 14,4 C 12,9 C 75 % 1021,9 hPa 0,0 l/m 0 min 0 min 0,0 UV-I 46 W/m 0,0 km/h (0 Bft)
27.06.2013 20:40 14,3 C 12,9 C 75 % 1021,8 hPa 0,0 l/m 0 min 0 min 0,0 UV-I 46 W/m 0,0 km/h (0 Bft)
27.06.2013 20:44 14,3 C 12,9 C 76 % 1021,9 hPa 0,0 l/m 0 min 0 min 0,0 UV-I 53 W/m 0,0 km/h (0 Bft)
27.06.2013 20:46 14,3 C 12,9 C 75 % 1021,8 hPa 0,0 l/m 0 min 0 min 0,0 UV-I 58 W/m 0,0 km/h (0 Bft)
27.06.2013 20:50 14,2 C 12,9 C 75 % 1021,9 hPa 0,0 l/m 0 min 0 min 0,0 UV-I 67 W/m 5,1 km/h (1 Bft)
27.06.2013 20:52 14,2 C 13,4 C 75 % 1021,9 hPa 0,0 l/m 2 min 0 min 0,0 UV-I 74 W/m 0,0 km/h (0 Bft)
27.06.2013 20:54 14,2 C 13,4 C 76 % 1021,9 hPa 0,0 l/m 2 min 0 min 0,0 UV-I 83 W/m 5,1 km/h (1 Bft)
27.06.2013 20:56 14,2 C 13,4 C 76 % 1021,8 hPa 0,0 l/m 2 min 0 min 0,0 UV-I 83 W/m 0,0 km/h (0 Bft)
27.06.2013 20:58 14,2 C 13,4 C 76 % 1021,9 hPa 0,0 l/m 2 min 0 min 0,0 UV-I 74 W/m 0,0 km/h (0 Bft)
27.06.2013 21:00 14,2 C 13,4 C 76 % 1021,9 hPa 0,0 l/m 2 min 0 min 0,0 UV-I 67 W/m 0,0 km/h (0 Bft)
27.06.2013 21:02 14,1 C 13,4 C 76 % 1021,9 hPa 0,0 l/m 2 min 0 min 0,0 UV-I 62 W/m 0,0 km/h (0 Bft)
27.06.2013 21:05 14,2 C 12,9 C 76 % 1021,9 hPa 0,0 l/m 2 min 0 min 0,0 UV-I 51 W/m 5,1 km/h (1 Bft)
27.06.2013 21:06 14,1 C 12,9 C 76 % 1021,9 hPa 0,0 l/m 0 min 0 min 0,0 UV-I 47 W/m 0,0 km/h (0 Bft)
27.06.2013 21:08 14,1 C 12,9 C 76 % 1021,9 hPa 0,0 l/m 0 min 0 min 0,0 UV-I 42 W/m 0,0 km/h (0 Bft)
27.06.2013 21:10 14,1 C 12,9 C 76 % 1021,9 hPa 0,0 l/m 0 min 0 min 0,0 UV-I 33 W/m 5,1 km/h (1 Bft)
27.06.2013 21:12 14,1 C 12,3 C 75 % 1021,8 hPa 0,0 l/m 0 min 0 min 0,0 UV-I 30 W/m 0,0 km/h (0 Bft)
27.06.2013 21:14 14,0 C 12,3 C 75 % 1021,9 hPa 0,0 l/m 0 min 0 min 0,0 UV-I 26 W/m 0,0 km/h (0 Bft)
27.06.2013 21:16 14,0 C 12,3 C 75 % 1021,9 hPa 0,0 l/m 0 min 0 min 0,0 UV-I 21 W/m 2,6 km/h (1 Bft)
27.06.2013 21:18 14,0 C 12,3 C 75 % 1021,9 hPa 0,0 l/m 0 min 0 min 0,0 UV-I 19 W/m 7,7 km/h (2 Bft)
27.06.2013 21:20 14,0 C 11,8 C 75 % 1021,9 hPa 0,0 l/m 0 min 0 min 0,0 UV-I 18 W/m 7,7 km/h (2 Bft)
27.06.2013 21:22 14,0 C 11,8 C 75 % 1021,9 hPa 0,0 l/m 0 min 0 min 0,0 UV-I 14 W/m 0,0 km/h (0 Bft)
27.06.2013 21:24 13,9 C 11,8 C 75 % 1021,9 hPa 0,0 l/m 0 min 0 min 0,0 UV-I 14 W/m 0,0 km/h (0 Bft)
27.06.2013 21:26 13,9 C 11,8 C 75 % 1021,9 hPa 0,0 l/m 0 min 0 min 0,0 UV-I 12 W/m 0,0 km/h (0 Bft)
27.06.2013 21:28 13,8 C 11,8 C 75 % 1021,9 hPa 0,0 l/m 0 min 0 min 0,0 UV-I 11 W/m 0,0 km/h (0 Bft)
27.06.2013 21:30 13,8 C 11,2 C 75 % 1021,9 hPa 0,0 l/m 0 min 0 min 0,0 UV-I 11 W/m 0,0 km/h (0 Bft)
27.06.2013 21:32 13,7 C 11,2 C 75 % 1021,9 hPa 0,0 l/m 0 min 0 min 0,0 UV-I 11 W/m 0,0 km/h (0 Bft)
27.06.2013 21:34 13,7 C 11,2 C 75 % 1021,9 hPa 0,0 l/m 0 min 0 min 0,0 UV-I 9 W/m 0,0 km/h (0 Bft)
27.06.2013 21:36 13,7 C 11,2 C 75 % 1021,9 hPa 0,0 l/m 0 min 0 min 0,0 UV-I 9 W/m 0,0 km/h (0 Bft)
27.06.2013 21:38 13,6 C 10,7 C 75 % 1021,8 hPa 0,0 l/m 0 min 0 min 0,0 UV-I 9 W/m 0,0 km/h (0 Bft)
27.06.2013 21:40 13,6 C 10,7 C 76 % 1021,8 hPa 0,0 l/m 0 min 0 min 0,0 UV-I 7 W/m 0,0 km/h (0 Bft)
27.06.2013 21:42 13,5 C 10,7 C 75 % 1021,8 hPa 0,0 l/m 0 min 0 min 0,0 UV-I 7 W/m 0,0 km/h (0 Bft)
27.06.2013 21:44 13,4 C 10,7 C 75 % 1021,8 hPa 0,0 l/m 0 min 0 min 0,0 UV-I 7 W/m 0,0 km/h (0 Bft)
27.06.2013 21:46 13,4 C 10,7 C 76 % 1021,8 hPa 0,0 l/m 0 min 0 min 0,0 UV-I 5 W/m 0,0 km/h (0 Bft)
27.06.2013 21:48 13,3 C 10,1 C 76 % 1021,8 hPa 0,0 l/m 0 min 0 min 0,0 UV-I 5 W/m 0,0 km/h (0 Bft)
27.06.2013 21:50 13,3 C 10,1 C 76 % 1021,9 hPa 0,0 l/m 0 min 0 min 0,0 UV-I 5 W/m 0,0 km/h (0 Bft)
27.06.2013 21:52 13,2 C 10,1 C 76 % 1021,9 hPa 0,0 l/m 0 min 0 min 0,0 UV-I 0 W/m 0,0 km/h (0 Bft)
27.06.2013 21:54 13,2 C 10,1 C 76 % 1021,9 hPa 0,0 l/m 0 min 0 min 0,0 UV-I 0 W/m 0,0 km/h (0 Bft)
27.06.2013 21:56 13,1 C 10,1 C 76 % 1021,9 hPa 0,0 l/m 0 min 0 min 0,0 UV-I 0 W/m 0,0 km/h (0 Bft)
27.06.2013 21:58 13,1 C 9,6 C 76 % 1021,9 hPa 0,0 l/m 0 min 0 min 0,0 UV-I 0 W/m 0,0 km/h (0 Bft)
27.06.2013 22:00 13,0 C 9,6 C 76 % 1021,9 hPa 0,0 l/m 0 min 0 min 0,0 UV-I 0 W/m 0,0 km/h (0 Bft)
27.06.2013 22:02 12,9 C 9,6 C 77 % 1021,9 hPa 0,0 l/m 0 min 0 min 0,0 UV-I 0 W/m 0,0 km/h (0 Bft)
27.06.2013 22:06 12,8 C 9,6 C 77 % 1021,9 hPa 0,0 l/m 0 min 0 min 0,0 UV-I 0 W/m 0,0 km/h (0 Bft)
27.06.2013 22:08 12,8 C 9,6 C 77 % 1021,9 hPa 0,0 l/m 0 min 0 min 0,0 UV-I 0 W/m 0,0 km/h (0 Bft)
27.06.2013 22:10 12,7 C 9,6 C 78 % 1021,9 hPa 0,0 l/m 0 min 0 min 0,0 UV-I 0 W/m 0,0 km/h (0 Bft)
27.06.2013 22:12 12,6 C 9,6 C 78 % 1021,9 hPa 0,0 l/m 0 min 0 min 0,0 UV-I 0 W/m 0,0 km/h (0 Bft)
27.06.2013 22:14 12,6 C 9,6 C 78 % 1022,0 hPa 0,0 l/m 0 min 0 min 0,0 UV-I 0 W/m 0,0 km/h (0 Bft)
27.06.2013 22:16 12,5 C 9,6 C 78 % 1022,0 hPa 0,0 l/m 0 min 0 min 0,0 UV-I 0 W/m 0,0 km/h (0 Bft)
27.06.2013 22:18 12,4 C 9,6 C 78 % 1022,0 hPa 0,0 l/m 0 min 0 min 0,0 UV-I 0 W/m 0,0 km/h (0 Bft)
27.06.2013 22:20 12,4 C 9,6 C 78 % 1022,0 hPa 0,0 l/m 0 min 0 min 0,0 UV-I 0 W/m 0,0 km/h (0 Bft)
27.06.2013 22:22 12,3 C 9,6 C 78 % 1022,0 hPa 0,0 l/m 0 min 0 min 0,0 UV-I 0 W/m 0,0 km/h (0 Bft)
27.06.2013 22:24 12,3 C 9,6 C 79 % 1021,9 hPa 0,0 l/m 0 min 0 min 0,0 UV-I 0 W/m 0,0 km/h (0 Bft)
27.06.2013 22:26 12,2 C 9,6 C 79 % 1022,0 hPa 0,0 l/m 0 min 0 min 0,0 UV-I 0 W/m 0,0 km/h (0 Bft)
27.06.2013 22:28 12,2 C 9,6 C 79 % 1021,9 hPa 0,0 l/m 0 min 0 min 0,0 UV-I 0 W/m 0,0 km/h (0 Bft)
27.06.2013 22:30 12,1 C 9,6 C 79 % 1021,9 hPa 0,0 l/m 0 min 0 min 0,0 UV-I 0 W/m 0,0 km/h (0 Bft)
27.06.2013 22:32 12,1 C 9,0 C 79 % 1021,9 hPa 0,0 l/m 0 min 0 min 0,0 UV-I 0 W/m 0,0 km/h (0 Bft)
27.06.2013 22:34 12,1 C 9,0 C 79 % 1021,8 hPa 0,0 l/m 0 min 0 min 0,0 UV-I 0 W/m 0,0 km/h (0 Bft)
27.06.2013 22:36 12,0 C 9,0 C 80 % 1021,9 hPa 0,0 l/m 0 min 0 min 0,0 UV-I 0 W/m 0,0 km/h (0 Bft)
27.06.2013 22:38 11,9 C 9,0 C 80 % 1021,9 hPa 0,0 l/m 0 min 0 min 0,0 UV-I 0 W/m 0,0 km/h (0 Bft)
27.06.2013 22:40 11,9 C 9,0 C 80 % 1021,9 hPa 0,0 l/m 0 min 0 min 0,0 UV-I 0 W/m 0,0 km/h (0 Bft)
27.06.2013 22:42 11,8 C 9,0 C 80 % 1021,8 hPa 0,0 l/m 0 min 0 min 0,0 UV-I 0 W/m 0,0 km/h (0 Bft)
27.06.2013 22:44 11,8 C 9,0 C 80 % 1021,8 hPa 0,0 l/m 0 min 0 min 0,0 UV-I 0 W/m 0,0 km/h (0 Bft)
27.06.2013 22:46 11,7 C 9,0 C 81 % 1021,9 hPa 0,0 l/m 0 min 0 min 0,0 UV-I 0 W/m 0,0 km/h (0 Bft)
27.06.2013 22:48 11,7 C 9,0 C 81 % 1021,9 hPa 0,0 l/m 0 min 0 min 0,0 UV-I 0 W/m 0,0 km/h (0 Bft)
27.06.2013 22:50 11,6 C 9,0 C 81 % 1021,9 hPa 0,0 l/m 0 min 0 min 0,0 UV-I 0 W/m 0,0 km/h (0 Bft)
27.06.2013 22:52 11,6 C 9,0 C 81 % 1021,8 hPa 0,0 l/m 0 min 0 min 0,0 UV-I 0 W/m 0,0 km/h (0 Bft)
27.06.2013 22:54 11,6 C 9,0 C 81 % 1021,8 hPa 0,0 l/m 0 min 0 min 0,0 UV-I 0 W/m 0,0 km/h (0 Bft)
27.06.2013 22:56 11,5 C 9,0 C 81 % 1021,8 hPa 0,0 l/m 0 min 0 min 0,0 UV-I 0 W/m 0,0 km/h (0 Bft)
27.06.2013 22:58 11,4 C 9,0 C 81 % 1021,8 hPa 0,0 l/m 0 min 0 min 0,0 UV-I 0 W/m 0,0 km/h (0 Bft)
27.06.2013 23:00 11,4 C 9,0 C 82 % 1021,8 hPa 0,0 l/m 0 min 0 min 0,0 UV-I 0 W/m 0,0 km/h (0 Bft)
27.06.2013 23:02 11,3 C 9,0 C 82 % 1021,9 hPa 0,0 l/m 0 min 0 min 0,0 UV-I 0 W/m 0,0 km/h (0 Bft)
27.06.2013 23:06 11,2 C 9,0 C 82 % 1021,9 hPa 0,0 l/m 0 min 0 min 0,0 UV-I 0 W/m 2,6 km/h (1 Bft)
27.06.2013 23:08 11,2 C 9,0 C 82 % 1021,8 hPa 0,0 l/m 0 min 0 min 0,0 UV-I 0 W/m 0,0 km/h (0 Bft)
27.06.2013 23:10 11,2 C 9,0 C 83 % 1021,7 hPa 0,0 l/m 0 min 0 min 0,0 UV-I 0 W/m 0,0 km/h (0 Bft)
27.06.2013 23:14 11,1 C 9,0 C 83 % 1021,9 hPa 0,0 l/m 0 min 0 min 0,0 UV-I 0 W/m 0,0 km/h (0 Bft)
27.06.2013 23:16 11,0 C 9,0 C 83 % 1021,9 hPa 0,0 l/m 0 min 0 min 0,0 UV-I 0 W/m 0,0 km/h (0 Bft)
27.06.2013 23:18 11,0 C 9,0 C 83 % 1021,9 hPa 0,0 l/m 0 min 0 min 0,0 UV-I 0 W/m 0,0 km/h (0 Bft)
27.06.2013 23:20 10,9 C 9,0 C 83 % 1021,9 hPa 0,0 l/m 0 min 0 min 0,0 UV-I 0 W/m 0,0 km/h (0 Bft)
27.06.2013 23:22 10,9 C 9,6 C 83 % 1021,9 hPa 0,0 l/m 0 min 0 min 0,0 UV-I 0 W/m 0,0 km/h (0 Bft)
27.06.2013 23:24 10,9 C 9,6 C 84 % 1021,9 hPa 0,0 l/m 0 min 0 min 0,0 UV-I 0 W/m 0,0 km/h (0 Bft)
27.06.2013 23:26 10,8 C 9,6 C 84 % 1021,9 hPa 0,0 l/m 0 min 0 min 0,0 UV-I 0 W/m 0,0 km/h (0 Bft)
27.06.2013 23:28 10,8 C 9,6 C 84 % 1022,0 hPa 0,0 l/m 0 min 0 min 0,0 UV-I 0 W/m 0,0 km/h (0 Bft)
27.06.2013 23:30 10,8 C 9,6 C 84 % 1022,0 hPa 0,0 l/m 0 min 0 min 0,0 UV-I 0 W/m 0,0 km/h (0 Bft)
27.06.2013 23:32 10,8 C 9,6 C 84 % 1021,9 hPa 0,0 l/m 0 min 0 min 0,0 UV-I 0 W/m 0,0 km/h (0 Bft)
27.06.2013 23:34 10,7 C 9,6 C 84 % 1021,9 hPa 0,0 l/m 0 min 0 min 0,0 UV-I 0 W/m 0,0 km/h (0 Bft)
27.06.2013 23:36 10,7 C 9,6 C 84 % 1021,9 hPa 0,0 l/m 0 min 0 min 0,0 UV-I 0 W/m 0,0 km/h (0 Bft)
27.06.2013 23:38 10,7 C 9,6 C 84 % 1021,8 hPa 0,0 l/m 0 min 0 min 0,0 UV-I 0 W/m 0,0 km/h (0 Bft)
27.06.2013 23:40 10,7 C 9,6 C 85 % 1021,8 hPa 0,0 l/m 0 min 0 min 0,0 UV-I 0 W/m 0,0 km/h (0 Bft)
27.06.2013 23:42 10,7 C 9,6 C 85 % 1021,9 hPa 0,0 l/m 0 min 0 min 0,0 UV-I 0 W/m 0,0 km/h (0 Bft)
27.06.2013 23:44 10,7 C 9,6 C 85 % 1021,8 hPa 0,0 l/m 0 min 0 min 0,0 UV-I 0 W/m 2,6 km/h (1 Bft)
27.06.2013 23:46 10,6 C 9,6 C 85 % 1021,7 hPa 0,0 l/m 0 min 0 min 0,0 UV-I 0 W/m 0,0 km/h (0 Bft)
27.06.2013 23:48 10,6 C 9,6 C 85 % 1021,7 hPa 0,0 l/m 0 min 0 min 0,0 UV-I 0 W/m 0,0 km/h (0 Bft)
27.06.2013 23:50 10,6 C 9,6 C 85 % 1021,7 hPa 0,0 l/m 0 min 0 min 0,0 UV-I 0 W/m 0,0 km/h (0 Bft)
27.06.2013 23:52 10,6 C 9,6 C 86 % 1021,7 hPa 0,0 l/m 0 min 0 min 0,0 UV-I 0 W/m 0,0 km/h (0 Bft)
27.06.2013 23:54 10,6 C 9,6 C 86 % 1021,7 hPa 0,0 l/m 0 min 0 min 0,0 UV-I 0 W/m 0,0 km/h (0 Bft)
27.06.2013 23:56 10,6 C 9,6 C 86 % 1021,7 hPa 0,0 l/m 0 min 0 min 0,0 UV-I 0 W/m 0,0 km/h (0 Bft)
27.06.2013 23:58 10,6 C 9,6 C 86 % 1021,7 hPa 0,0 l/m 0 min 0 min 0,0 UV-I 0 W/m 0,0 km/h (0 Bft)
_ Min-Zeit 06:06 22:32 13:10 23:10 - - - - - 00:00
Minimum _ 10,4 C 9,0 C 66 % 1021,7 hPa - - - - - 0,0 km/h (0 Bft)
_ Max-Zeit 13:08 13:06 08:42 00:00 01:08 08:14 00:30 11:32 11:38 01:22
Maximum _ 17,9 C 22,9 C 98 % 1025,3 hPa 0,4 l/m 2 min 2 min 4,3 UV-I 1030 W/m 20,6 km/h
W-NW (4 Bft)
Durchschnitt _ 13,2 C 12,5 C 84 % 1023,1 hPa #5,4 l/m #2:08 h #4:25 h 1,6 UV-I 205 W/m 4,1 km/h (1 Bft)
© 2013 W. Hausmann